<?xml version="1.0" encoding="UTF-8" standalone="no" ?>
<gpx xmlns="http://www.topografix.com/GPX/1/1" xmlns:xsi="http://www.w3.org/2001/XMLSchema-instance" xsi:schemaLocation="http://www.topografix.com/GPX/1/1 http://www.topografix.com/GPX/1/1/gpx.xsd" version="1.1" creator="VisuGPX - https://www.visugpx.com">
  <metadata>
    <name>Balade autour du village du TERROU</name>
    <desc><![CDATA[Rando pédestre effectuée le dimanche 19 octobre 2014.
Pas de difficulté particulière.]]></desc>
  </metadata>
  <trk>
    <name><![CDATA[Track 008]]></name>
    <desc><![CDATA[19 oct. 2014  2:05 pm]]></desc>
    <trkseg>
      <trkpt lat="44.78433" lon="1.98499">
        <ele>368.525</ele>
        <time>2014-10-19T12:05:55.961Z</time>
      </trkpt>
      <trkpt lat="44.78433" lon="1.98499">
        <ele>366.766</ele>
        <time>2014-10-19T12:05:55.962Z</time>
      </trkpt>
      <trkpt lat="44.78433" lon="1.98499">
        <ele>362.349</ele>
        <time>2014-10-19T12:05:56.062Z</time>
      </trkpt>
      <trkpt lat="44.7844" lon="1.98489">
        <ele>360.736</ele>
        <time>2014-10-19T12:06:18.775Z</time>
      </trkpt>
      <trkpt lat="44.78446" lon="1.98498">
        <ele>363.219</ele>
        <time>2014-10-19T12:06:28.068Z</time>
      </trkpt>
      <trkpt lat="44.78449" lon="1.98511">
        <ele>362.689</ele>
        <time>2014-10-19T12:06:38.024Z</time>
      </trkpt>
      <trkpt lat="44.78454" lon="1.98523">
        <ele>359.916</ele>
        <time>2014-10-19T12:06:47.765Z</time>
      </trkpt>
      <trkpt lat="44.78457" lon="1.98536">
        <ele>357.211</ele>
        <time>2014-10-19T12:06:57.116Z</time>
      </trkpt>
      <trkpt lat="44.78464" lon="1.98546">
        <ele>355.498</ele>
        <time>2014-10-19T12:07:07.191Z</time>
      </trkpt>
      <trkpt lat="44.7847" lon="1.98557">
        <ele>354.639</ele>
        <time>2014-10-19T12:07:16.021Z</time>
      </trkpt>
      <trkpt lat="44.78476" lon="1.98566">
        <ele>354.196</ele>
        <time>2014-10-19T12:07:25.138Z</time>
      </trkpt>
      <trkpt lat="44.78481" lon="1.98578">
        <ele>353.643</ele>
        <time>2014-10-19T12:07:34.719Z</time>
      </trkpt>
      <trkpt lat="44.78485" lon="1.9859">
        <ele>352.715</ele>
        <time>2014-10-19T12:07:43.710Z</time>
      </trkpt>
      <trkpt lat="44.78486" lon="1.98603">
        <ele>351.837</ele>
        <time>2014-10-19T12:07:52.918Z</time>
      </trkpt>
      <trkpt lat="44.78489" lon="1.98615">
        <ele>350.77</ele>
        <time>2014-10-19T12:08:01.924Z</time>
      </trkpt>
      <trkpt lat="44.78493" lon="1.98627">
        <ele>349.036</ele>
        <time>2014-10-19T12:08:12.926Z</time>
      </trkpt>
      <trkpt lat="44.78498" lon="1.98638">
        <ele>347.39</ele>
        <time>2014-10-19T12:08:23.847Z</time>
      </trkpt>
      <trkpt lat="44.78505" lon="1.98646">
        <ele>346.769</ele>
        <time>2014-10-19T12:08:34.054Z</time>
      </trkpt>
      <trkpt lat="44.78512" lon="1.98655">
        <ele>347.016</ele>
        <time>2014-10-19T12:08:46.638Z</time>
      </trkpt>
      <trkpt lat="44.7852" lon="1.98662">
        <ele>347.789</ele>
        <time>2014-10-19T12:09:01.590Z</time>
      </trkpt>
      <trkpt lat="44.78528" lon="1.98669">
        <ele>350.665</ele>
        <time>2014-10-19T12:09:15.686Z</time>
      </trkpt>
      <trkpt lat="44.78537" lon="1.98675">
        <ele>356.313</ele>
        <time>2014-10-19T12:09:25.207Z</time>
      </trkpt>
      <trkpt lat="44.78546" lon="1.98679">
        <ele>361.457</ele>
        <time>2014-10-19T12:09:34.445Z</time>
      </trkpt>
      <trkpt lat="44.78556" lon="1.98678">
        <ele>363.266</ele>
        <time>2014-10-19T12:09:44.954Z</time>
      </trkpt>
      <trkpt lat="44.78566" lon="1.98676">
        <ele>362.654</ele>
        <time>2014-10-19T12:09:54.065Z</time>
      </trkpt>
      <trkpt lat="44.78576" lon="1.98672">
        <ele>361.477</ele>
        <time>2014-10-19T12:10:03.746Z</time>
      </trkpt>
      <trkpt lat="44.78585" lon="1.98667">
        <ele>361.238</ele>
        <time>2014-10-19T12:10:11.413Z</time>
      </trkpt>
      <trkpt lat="44.78593" lon="1.9866">
        <ele>362.647</ele>
        <time>2014-10-19T12:10:19.345Z</time>
      </trkpt>
      <trkpt lat="44.78601" lon="1.98653">
        <ele>364.953</ele>
        <time>2014-10-19T12:10:27.008Z</time>
      </trkpt>
      <trkpt lat="44.78609" lon="1.98646">
        <ele>366.667</ele>
        <time>2014-10-19T12:10:35.217Z</time>
      </trkpt>
      <trkpt lat="44.78616" lon="1.98637">
        <ele>367.199</ele>
        <time>2014-10-19T12:10:43.580Z</time>
      </trkpt>
      <trkpt lat="44.78624" lon="1.9863">
        <ele>366.926</ele>
        <time>2014-10-19T12:10:51.351Z</time>
      </trkpt>
      <trkpt lat="44.78633" lon="1.98626">
        <ele>365.899</ele>
        <time>2014-10-19T12:10:58.948Z</time>
      </trkpt>
      <trkpt lat="44.78643" lon="1.98628">
        <ele>363.43</ele>
        <time>2014-10-19T12:11:07.069Z</time>
      </trkpt>
      <trkpt lat="44.7865" lon="1.98637">
        <ele>358.599</ele>
        <time>2014-10-19T12:11:14.692Z</time>
      </trkpt>
      <trkpt lat="44.78656" lon="1.98648">
        <ele>351.861</ele>
        <time>2014-10-19T12:11:21.330Z</time>
      </trkpt>
      <trkpt lat="44.78661" lon="1.98658">
        <ele>345.767</ele>
        <time>2014-10-19T12:11:28.188Z</time>
      </trkpt>
      <trkpt lat="44.78667" lon="1.98669">
        <ele>342.914</ele>
        <time>2014-10-19T12:11:36.287Z</time>
      </trkpt>
      <trkpt lat="44.78675" lon="1.98676">
        <ele>343.272</ele>
        <time>2014-10-19T12:11:45.123Z</time>
      </trkpt>
      <trkpt lat="44.78681" lon="1.98686">
        <ele>344.929</ele>
        <time>2014-10-19T12:11:54.782Z</time>
      </trkpt>
      <trkpt lat="44.78691" lon="1.98688">
        <ele>346.542</ele>
        <time>2014-10-19T12:12:03.581Z</time>
      </trkpt>
      <trkpt lat="44.78699" lon="1.98695">
        <ele>348.403</ele>
        <time>2014-10-19T12:12:10.953Z</time>
      </trkpt>
      <trkpt lat="44.78709" lon="1.98695">
        <ele>350.835</ele>
        <time>2014-10-19T12:12:18.422Z</time>
      </trkpt>
      <trkpt lat="44.78718" lon="1.987">
        <ele>352.853</ele>
        <time>2014-10-19T12:12:26.300Z</time>
      </trkpt>
      <trkpt lat="44.78725" lon="1.98708">
        <ele>352.791</ele>
        <time>2014-10-19T12:12:34.300Z</time>
      </trkpt>
      <trkpt lat="44.7873" lon="1.98719">
        <ele>350.649</ele>
        <time>2014-10-19T12:12:41.014Z</time>
      </trkpt>
      <trkpt lat="44.78733" lon="1.98732">
        <ele>348.359</ele>
        <time>2014-10-19T12:12:48.895Z</time>
      </trkpt>
      <trkpt lat="44.78733" lon="1.98745">
        <ele>347.369</ele>
        <time>2014-10-19T12:12:57.585Z</time>
      </trkpt>
      <trkpt lat="44.7873" lon="1.98757">
        <ele>347.372</ele>
        <time>2014-10-19T12:13:06.464Z</time>
      </trkpt>
      <trkpt lat="44.78726" lon="1.98769">
        <ele>348.364</ele>
        <time>2014-10-19T12:13:13.820Z</time>
      </trkpt>
      <trkpt lat="44.78723" lon="1.98781">
        <ele>350.896</ele>
        <time>2014-10-19T12:13:20.821Z</time>
      </trkpt>
      <trkpt lat="44.78721" lon="1.98795">
        <ele>354.087</ele>
        <time>2014-10-19T12:13:29.137Z</time>
      </trkpt>
      <trkpt lat="44.78716" lon="1.98808">
        <ele>355.877</ele>
        <time>2014-10-19T12:13:38.232Z</time>
      </trkpt>
      <trkpt lat="44.78715" lon="1.98822">
        <ele>355.483</ele>
        <time>2014-10-19T12:13:47.619Z</time>
      </trkpt>
      <trkpt lat="44.78713" lon="1.98836">
        <ele>354.147</ele>
        <time>2014-10-19T12:13:56.712Z</time>
      </trkpt>
      <trkpt lat="44.78709" lon="1.98848">
        <ele>353.495</ele>
        <time>2014-10-19T12:14:04.818Z</time>
      </trkpt>
      <trkpt lat="44.78704" lon="1.98859">
        <ele>354.035</ele>
        <time>2014-10-19T12:14:12.808Z</time>
      </trkpt>
      <trkpt lat="44.78701" lon="1.98873">
        <ele>355.578</ele>
        <time>2014-10-19T12:14:20.494Z</time>
      </trkpt>
      <trkpt lat="44.78696" lon="1.98884">
        <ele>357.443</ele>
        <time>2014-10-19T12:14:27.347Z</time>
      </trkpt>
      <trkpt lat="44.78694" lon="1.98896">
        <ele>358.803</ele>
        <time>2014-10-19T12:14:34.444Z</time>
      </trkpt>
      <trkpt lat="44.78696" lon="1.98909">
        <ele>359.527</ele>
        <time>2014-10-19T12:14:42.684Z</time>
      </trkpt>
      <trkpt lat="44.787" lon="1.98921">
        <ele>359.81</ele>
        <time>2014-10-19T12:14:50.456Z</time>
      </trkpt>
      <trkpt lat="44.78705" lon="1.98933">
        <ele>359.796</ele>
        <time>2014-10-19T12:14:57.991Z</time>
      </trkpt>
      <trkpt lat="44.78713" lon="1.9894">
        <ele>359.669</ele>
        <time>2014-10-19T12:15:04.961Z</time>
      </trkpt>
      <trkpt lat="44.78713" lon="1.9894">
        <ele>359.52</ele>
        <time>2014-10-19T12:15:08.962Z</time>
      </trkpt>
      <trkpt lat="44.78713" lon="1.9894">
        <ele>359.354</ele>
        <time>2014-10-19T12:16:15.462Z</time>
      </trkpt>
      <trkpt lat="44.78724" lon="1.98945">
        <ele>359.103</ele>
        <time>2014-10-19T12:16:31.513Z</time>
      </trkpt>
      <trkpt lat="44.78735" lon="1.98947">
        <ele>359.078</ele>
        <time>2014-10-19T12:16:46.535Z</time>
      </trkpt>
      <trkpt lat="44.78743" lon="1.98953">
        <ele>358.832</ele>
        <time>2014-10-19T12:16:53.482Z</time>
      </trkpt>
      <trkpt lat="44.78751" lon="1.98961">
        <ele>358.088</ele>
        <time>2014-10-19T12:17:00.951Z</time>
      </trkpt>
      <trkpt lat="44.78759" lon="1.98967">
        <ele>357.172</ele>
        <time>2014-10-19T12:17:09.618Z</time>
      </trkpt>
      <trkpt lat="44.78767" lon="1.98974">
        <ele>356.691</ele>
        <time>2014-10-19T12:17:18.133Z</time>
      </trkpt>
      <trkpt lat="44.78776" lon="1.98981">
        <ele>356.759</ele>
        <time>2014-10-19T12:17:26.671Z</time>
      </trkpt>
      <trkpt lat="44.78785" lon="1.98981">
        <ele>356.487</ele>
        <time>2014-10-19T12:17:35.717Z</time>
      </trkpt>
      <trkpt lat="44.78795" lon="1.98978">
        <ele>355.244</ele>
        <time>2014-10-19T12:17:45.864Z</time>
      </trkpt>
      <trkpt lat="44.78804" lon="1.98975">
        <ele>354.229</ele>
        <time>2014-10-19T12:17:56.030Z</time>
      </trkpt>
      <trkpt lat="44.78813" lon="1.98974">
        <ele>354.55</ele>
        <time>2014-10-19T12:18:06.421Z</time>
      </trkpt>
      <trkpt lat="44.78822" lon="1.98978">
        <ele>353.947</ele>
        <time>2014-10-19T12:18:17.608Z</time>
      </trkpt>
      <trkpt lat="44.78829" lon="1.98986">
        <ele>350.573</ele>
        <time>2014-10-19T12:18:26.466Z</time>
      </trkpt>
      <trkpt lat="44.78837" lon="1.98993">
        <ele>346.409</ele>
        <time>2014-10-19T12:18:33.964Z</time>
      </trkpt>
      <trkpt lat="44.78845" lon="1.99">
        <ele>344.074</ele>
        <time>2014-10-19T12:18:41.764Z</time>
      </trkpt>
      <trkpt lat="44.78853" lon="1.99006">
        <ele>343.863</ele>
        <time>2014-10-19T12:18:51.153Z</time>
      </trkpt>
      <trkpt lat="44.7886" lon="1.99016">
        <ele>345.057</ele>
        <time>2014-10-19T12:19:03.369Z</time>
      </trkpt>
      <trkpt lat="44.78867" lon="1.99025">
        <ele>346.656</ele>
        <time>2014-10-19T12:19:15.647Z</time>
      </trkpt>
      <trkpt lat="44.78874" lon="1.99033">
        <ele>346.92</ele>
        <time>2014-10-19T12:19:25.800Z</time>
      </trkpt>
      <trkpt lat="44.78882" lon="1.99042">
        <ele>344.912</ele>
        <time>2014-10-19T12:19:35.368Z</time>
      </trkpt>
      <trkpt lat="44.7889" lon="1.9905">
        <ele>342.585</ele>
        <time>2014-10-19T12:19:45.647Z</time>
      </trkpt>
      <trkpt lat="44.78899" lon="1.99058">
        <ele>341.783</ele>
        <time>2014-10-19T12:19:55.720Z</time>
      </trkpt>
      <trkpt lat="44.78909" lon="1.9906">
        <ele>341.279</ele>
        <time>2014-10-19T12:20:03.205Z</time>
      </trkpt>
      <trkpt lat="44.78912" lon="1.99047">
        <ele>339.672</ele>
        <time>2014-10-19T12:20:13.482Z</time>
      </trkpt>
      <trkpt lat="44.78909" lon="1.99034">
        <ele>336.743</ele>
        <time>2014-10-19T12:20:26.781Z</time>
      </trkpt>
      <trkpt lat="44.78912" lon="1.99022">
        <ele>332.34</ele>
        <time>2014-10-19T12:20:40.866Z</time>
      </trkpt>
      <trkpt lat="44.78913" lon="1.99008">
        <ele>327.203</ele>
        <time>2014-10-19T12:20:51.443Z</time>
      </trkpt>
      <trkpt lat="44.78916" lon="1.98995">
        <ele>323.523</ele>
        <time>2014-10-19T12:20:59.452Z</time>
      </trkpt>
      <trkpt lat="44.78919" lon="1.98983">
        <ele>322.091</ele>
        <time>2014-10-19T12:21:06.443Z</time>
      </trkpt>
      <trkpt lat="44.78922" lon="1.9897">
        <ele>321.78</ele>
        <time>2014-10-19T12:21:13.947Z</time>
      </trkpt>
      <trkpt lat="44.78927" lon="1.9896">
        <ele>321.554</ele>
        <time>2014-10-19T12:21:22.389Z</time>
      </trkpt>
      <trkpt lat="44.78933" lon="1.98949">
        <ele>321.372</ele>
        <time>2014-10-19T12:21:32.681Z</time>
      </trkpt>
      <trkpt lat="44.78937" lon="1.98936">
        <ele>321.745</ele>
        <time>2014-10-19T12:21:43.777Z</time>
      </trkpt>
      <trkpt lat="44.78943" lon="1.98925">
        <ele>322.902</ele>
        <time>2014-10-19T12:21:53.644Z</time>
      </trkpt>
      <trkpt lat="44.7895" lon="1.98914">
        <ele>324.111</ele>
        <time>2014-10-19T12:22:02.542Z</time>
      </trkpt>
      <trkpt lat="44.78956" lon="1.98906">
        <ele>324.418</ele>
        <time>2014-10-19T12:22:10.434Z</time>
      </trkpt>
      <trkpt lat="44.78963" lon="1.98895">
        <ele>323.391</ele>
        <time>2014-10-19T12:22:19.728Z</time>
      </trkpt>
      <trkpt lat="44.7897" lon="1.98887">
        <ele>321.499</ele>
        <time>2014-10-19T12:22:28.192Z</time>
      </trkpt>
      <trkpt lat="44.78979" lon="1.98879">
        <ele>321.997</ele>
        <time>2014-10-19T12:22:38.147Z</time>
      </trkpt>
      <trkpt lat="44.78983" lon="1.98868">
        <ele>327.662</ele>
        <time>2014-10-19T12:22:46.985Z</time>
      </trkpt>
      <trkpt lat="44.78992" lon="1.98862">
        <ele>336.297</ele>
        <time>2014-10-19T12:22:56.216Z</time>
      </trkpt>
      <trkpt lat="44.79001" lon="1.98857">
        <ele>343.391</ele>
        <time>2014-10-19T12:23:07.288Z</time>
      </trkpt>
      <trkpt lat="44.79008" lon="1.9885">
        <ele>345.913</ele>
        <time>2014-10-19T12:23:15.388Z</time>
      </trkpt>
      <trkpt lat="44.79018" lon="1.98846">
        <ele>343.897</ele>
        <time>2014-10-19T12:23:23.187Z</time>
      </trkpt>
      <trkpt lat="44.79027" lon="1.98844">
        <ele>340.64</ele>
        <time>2014-10-19T12:23:31.453Z</time>
      </trkpt>
      <trkpt lat="44.79036" lon="1.9884">
        <ele>338.764</ele>
        <time>2014-10-19T12:23:43.201Z</time>
      </trkpt>
      <trkpt lat="44.79045" lon="1.98838">
        <ele>338.047</ele>
        <time>2014-10-19T12:23:53.345Z</time>
      </trkpt>
      <trkpt lat="44.79056" lon="1.98836">
        <ele>337.33</ele>
        <time>2014-10-19T12:24:01.332Z</time>
      </trkpt>
      <trkpt lat="44.79066" lon="1.98837">
        <ele>335.962</ele>
        <time>2014-10-19T12:24:07.864Z</time>
      </trkpt>
      <trkpt lat="44.79075" lon="1.9884">
        <ele>333.791</ele>
        <time>2014-10-19T12:24:14.620Z</time>
      </trkpt>
      <trkpt lat="44.79084" lon="1.98844">
        <ele>331.255</ele>
        <time>2014-10-19T12:24:22.898Z</time>
      </trkpt>
      <trkpt lat="44.79093" lon="1.98844">
        <ele>330.634</ele>
        <time>2014-10-19T12:24:32.010Z</time>
      </trkpt>
      <trkpt lat="44.79103" lon="1.98847">
        <ele>333.134</ele>
        <time>2014-10-19T12:24:41.271Z</time>
      </trkpt>
      <trkpt lat="44.79112" lon="1.98854">
        <ele>335.203</ele>
        <time>2014-10-19T12:24:49.954Z</time>
      </trkpt>
      <trkpt lat="44.7912" lon="1.9886">
        <ele>332.867</ele>
        <time>2014-10-19T12:24:56.449Z</time>
      </trkpt>
      <trkpt lat="44.79128" lon="1.98867">
        <ele>327.552</ele>
        <time>2014-10-19T12:25:03.879Z</time>
      </trkpt>
      <trkpt lat="44.79138" lon="1.98865">
        <ele>323.544</ele>
        <time>2014-10-19T12:25:13.802Z</time>
      </trkpt>
      <trkpt lat="44.79147" lon="1.98867">
        <ele>322.558</ele>
        <time>2014-10-19T12:25:23.007Z</time>
      </trkpt>
      <trkpt lat="44.79155" lon="1.98875">
        <ele>323.237</ele>
        <time>2014-10-19T12:25:30.753Z</time>
      </trkpt>
      <trkpt lat="44.79165" lon="1.98878">
        <ele>323.816</ele>
        <time>2014-10-19T12:25:39.657Z</time>
      </trkpt>
      <trkpt lat="44.79174" lon="1.98879">
        <ele>322.492</ele>
        <time>2014-10-19T12:25:49.120Z</time>
      </trkpt>
      <trkpt lat="44.79184" lon="1.98884">
        <ele>318.073</ele>
        <time>2014-10-19T12:25:57.079Z</time>
      </trkpt>
      <trkpt lat="44.79193" lon="1.98885">
        <ele>312.339</ele>
        <time>2014-10-19T12:26:04.252Z</time>
      </trkpt>
      <trkpt lat="44.79204" lon="1.98888">
        <ele>308.468</ele>
        <time>2014-10-19T12:26:13.045Z</time>
      </trkpt>
      <trkpt lat="44.79212" lon="1.98893">
        <ele>307.815</ele>
        <time>2014-10-19T12:26:22.280Z</time>
      </trkpt>
      <trkpt lat="44.79221" lon="1.98903">
        <ele>310.558</ele>
        <time>2014-10-19T12:26:31.781Z</time>
      </trkpt>
      <trkpt lat="44.7923" lon="1.98908">
        <ele>315.38</ele>
        <time>2014-10-19T12:26:39.020Z</time>
      </trkpt>
      <trkpt lat="44.79236" lon="1.98918">
        <ele>319.387</ele>
        <time>2014-10-19T12:26:46.041Z</time>
      </trkpt>
      <trkpt lat="44.79243" lon="1.98927">
        <ele>320.808</ele>
        <time>2014-10-19T12:26:52.713Z</time>
      </trkpt>
      <trkpt lat="44.79248" lon="1.9894">
        <ele>319.84</ele>
        <time>2014-10-19T12:26:59.539Z</time>
      </trkpt>
      <trkpt lat="44.79253" lon="1.9895">
        <ele>317.637</ele>
        <time>2014-10-19T12:27:05.833Z</time>
      </trkpt>
      <trkpt lat="44.79259" lon="1.98964">
        <ele>315.823</ele>
        <time>2014-10-19T12:27:13.850Z</time>
      </trkpt>
      <trkpt lat="44.7926" lon="1.98977">
        <ele>315.072</ele>
        <time>2014-10-19T12:27:21.237Z</time>
      </trkpt>
      <trkpt lat="44.79266" lon="1.98988">
        <ele>313.276</ele>
        <time>2014-10-19T12:27:31.092Z</time>
      </trkpt>
      <trkpt lat="44.79271" lon="1.98999">
        <ele>308.954</ele>
        <time>2014-10-19T12:27:40.557Z</time>
      </trkpt>
      <trkpt lat="44.79277" lon="1.9901">
        <ele>304.549</ele>
        <time>2014-10-19T12:27:51.210Z</time>
      </trkpt>
      <trkpt lat="44.79282" lon="1.9902">
        <ele>302.801</ele>
        <time>2014-10-19T12:28:03.344Z</time>
      </trkpt>
      <trkpt lat="44.7929" lon="1.99027">
        <ele>303.056</ele>
        <time>2014-10-19T12:28:16.113Z</time>
      </trkpt>
      <trkpt lat="44.79298" lon="1.9903">
        <ele>303.818</ele>
        <time>2014-10-19T12:28:30.006Z</time>
      </trkpt>
      <trkpt lat="44.79308" lon="1.99034">
        <ele>304.856</ele>
        <time>2014-10-19T12:28:43.534Z</time>
      </trkpt>
      <trkpt lat="44.79317" lon="1.99036">
        <ele>306.899</ele>
        <time>2014-10-19T12:28:54.318Z</time>
      </trkpt>
      <trkpt lat="44.79327" lon="1.99038">
        <ele>310.177</ele>
        <time>2014-10-19T12:29:04.415Z</time>
      </trkpt>
      <trkpt lat="44.79336" lon="1.99039">
        <ele>313.71</ele>
        <time>2014-10-19T12:29:14.351Z</time>
      </trkpt>
      <trkpt lat="44.79346" lon="1.99036">
        <ele>316.331</ele>
        <time>2014-10-19T12:29:22.862Z</time>
      </trkpt>
      <trkpt lat="44.79355" lon="1.99034">
        <ele>317.975</ele>
        <time>2014-10-19T12:29:29.211Z</time>
      </trkpt>
      <trkpt lat="44.79364" lon="1.99033">
        <ele>317.876</ele>
        <time>2014-10-19T12:29:36.013Z</time>
      </trkpt>
      <trkpt lat="44.79374" lon="1.99033">
        <ele>314.792</ele>
        <time>2014-10-19T12:29:44.396Z</time>
      </trkpt>
      <trkpt lat="44.79384" lon="1.99036">
        <ele>310.118</ele>
        <time>2014-10-19T12:29:53.281Z</time>
      </trkpt>
      <trkpt lat="44.79393" lon="1.99039">
        <ele>306.68</ele>
        <time>2014-10-19T12:30:01.888Z</time>
      </trkpt>
      <trkpt lat="44.79403" lon="1.99044">
        <ele>304.871</ele>
        <time>2014-10-19T12:30:09.089Z</time>
      </trkpt>
      <trkpt lat="44.79412" lon="1.99049">
        <ele>303.285</ele>
        <time>2014-10-19T12:30:15.525Z</time>
      </trkpt>
      <trkpt lat="44.7942" lon="1.99057">
        <ele>301.647</ele>
        <time>2014-10-19T12:30:22.965Z</time>
      </trkpt>
      <trkpt lat="44.7942" lon="1.99057">
        <ele>300.715</ele>
        <time>2014-10-19T12:30:29.971Z</time>
      </trkpt>
      <trkpt lat="44.7942" lon="1.99057">
        <ele>300.663</ele>
        <time>2014-10-19T12:30:30.071Z</time>
      </trkpt>
      <trkpt lat="44.79431" lon="1.99059">
        <ele>300.859</ele>
        <time>2014-10-19T12:30:52.965Z</time>
      </trkpt>
      <trkpt lat="44.79431" lon="1.99059">
        <ele>300.783</ele>
        <time>2014-10-19T12:31:07.967Z</time>
      </trkpt>
      <trkpt lat="44.79431" lon="1.99059">
        <ele>300.55</ele>
        <time>2014-10-19T12:31:39.544Z</time>
      </trkpt>
      <trkpt lat="44.79457" lon="1.99055">
        <ele>300.424</ele>
        <time>2014-10-19T12:33:13.973Z</time>
      </trkpt>
      <trkpt lat="44.79457" lon="1.99055">
        <ele>300.415</ele>
        <time>2014-10-19T12:33:25.967Z</time>
      </trkpt>
      <trkpt lat="44.79457" lon="1.99055">
        <ele>300.385</ele>
        <time>2014-10-19T12:34:39.818Z</time>
      </trkpt>
      <trkpt lat="44.79446" lon="1.99048">
        <ele>300.261</ele>
        <time>2014-10-19T12:35:34.477Z</time>
      </trkpt>
      <trkpt lat="44.79451" lon="1.9906">
        <ele>299.946</ele>
        <time>2014-10-19T12:35:44.382Z</time>
      </trkpt>
      <trkpt lat="44.79458" lon="1.9907">
        <ele>299.411</ele>
        <time>2014-10-19T12:35:54.900Z</time>
      </trkpt>
      <trkpt lat="44.79462" lon="1.99083">
        <ele>299.432</ele>
        <time>2014-10-19T12:36:07.821Z</time>
      </trkpt>
      <trkpt lat="44.79464" lon="1.99098">
        <ele>300.549</ele>
        <time>2014-10-19T12:36:15.561Z</time>
      </trkpt>
      <trkpt lat="44.79463" lon="1.99112">
        <ele>300.728</ele>
        <time>2014-10-19T12:36:22.050Z</time>
      </trkpt>
      <trkpt lat="44.79464" lon="1.99126">
        <ele>298.315</ele>
        <time>2014-10-19T12:36:30.205Z</time>
      </trkpt>
      <trkpt lat="44.79466" lon="1.99139">
        <ele>295.159</ele>
        <time>2014-10-19T12:36:39.535Z</time>
      </trkpt>
      <trkpt lat="44.79468" lon="1.99152">
        <ele>293.828</ele>
        <time>2014-10-19T12:36:47.680Z</time>
      </trkpt>
      <trkpt lat="44.79472" lon="1.99164">
        <ele>294.507</ele>
        <time>2014-10-19T12:36:56.493Z</time>
      </trkpt>
      <trkpt lat="44.79477" lon="1.99176">
        <ele>295.33</ele>
        <time>2014-10-19T12:37:06.396Z</time>
      </trkpt>
      <trkpt lat="44.79486" lon="1.9918">
        <ele>294.681</ele>
        <time>2014-10-19T12:37:16.891Z</time>
      </trkpt>
      <trkpt lat="44.79495" lon="1.99178">
        <ele>293.152</ele>
        <time>2014-10-19T12:37:27.069Z</time>
      </trkpt>
      <trkpt lat="44.79504" lon="1.99174">
        <ele>292.222</ele>
        <time>2014-10-19T12:37:34.808Z</time>
      </trkpt>
      <trkpt lat="44.79513" lon="1.9917">
        <ele>292.342</ele>
        <time>2014-10-19T12:37:42.924Z</time>
      </trkpt>
      <trkpt lat="44.79521" lon="1.99161">
        <ele>292.903</ele>
        <time>2014-10-19T12:37:51.046Z</time>
      </trkpt>
      <trkpt lat="44.79527" lon="1.9915">
        <ele>293.173</ele>
        <time>2014-10-19T12:37:58.696Z</time>
      </trkpt>
      <trkpt lat="44.79534" lon="1.99141">
        <ele>292.999</ele>
        <time>2014-10-19T12:38:07.300Z</time>
      </trkpt>
      <trkpt lat="44.79539" lon="1.9913">
        <ele>292.435</ele>
        <time>2014-10-19T12:38:16.940Z</time>
      </trkpt>
      <trkpt lat="44.79546" lon="1.99121">
        <ele>291.619</ele>
        <time>2014-10-19T12:38:24.741Z</time>
      </trkpt>
      <trkpt lat="44.79551" lon="1.9911">
        <ele>291.141</ele>
        <time>2014-10-19T12:38:32.747Z</time>
      </trkpt>
      <trkpt lat="44.79555" lon="1.99098">
        <ele>291.47</ele>
        <time>2014-10-19T12:38:40.781Z</time>
      </trkpt>
      <trkpt lat="44.79562" lon="1.99088">
        <ele>292.319</ele>
        <time>2014-10-19T12:38:48.214Z</time>
      </trkpt>
      <trkpt lat="44.79568" lon="1.99077">
        <ele>293.045</ele>
        <time>2014-10-19T12:38:55.247Z</time>
      </trkpt>
      <trkpt lat="44.79574" lon="1.99067">
        <ele>293.207</ele>
        <time>2014-10-19T12:39:03.006Z</time>
      </trkpt>
      <trkpt lat="44.79579" lon="1.99054">
        <ele>292.81</ele>
        <time>2014-10-19T12:39:11.931Z</time>
      </trkpt>
      <trkpt lat="44.79584" lon="1.99043">
        <ele>292.204</ele>
        <time>2014-10-19T12:39:19.297Z</time>
      </trkpt>
      <trkpt lat="44.7959" lon="1.99033">
        <ele>291.237</ele>
        <time>2014-10-19T12:39:26.613Z</time>
      </trkpt>
      <trkpt lat="44.79595" lon="1.99022">
        <ele>289.77</ele>
        <time>2014-10-19T12:39:34.660Z</time>
      </trkpt>
      <trkpt lat="44.79598" lon="1.99008">
        <ele>288.45</ele>
        <time>2014-10-19T12:39:43.139Z</time>
      </trkpt>
      <trkpt lat="44.79602" lon="1.98996">
        <ele>287.03</ele>
        <time>2014-10-19T12:39:50.447Z</time>
      </trkpt>
      <trkpt lat="44.79605" lon="1.98984">
        <ele>285.293</ele>
        <time>2014-10-19T12:39:58.389Z</time>
      </trkpt>
      <trkpt lat="44.79611" lon="1.98972">
        <ele>284.515</ele>
        <time>2014-10-19T12:40:07.808Z</time>
      </trkpt>
      <trkpt lat="44.79616" lon="1.98962">
        <ele>284.949</ele>
        <time>2014-10-19T12:40:16.327Z</time>
      </trkpt>
      <trkpt lat="44.79633" lon="1.989">
        <ele>285.775</ele>
        <time>2014-10-19T12:41:00.532Z</time>
      </trkpt>
      <trkpt lat="44.7964" lon="1.9889">
        <ele>286.081</ele>
        <time>2014-10-19T12:41:10.973Z</time>
      </trkpt>
      <trkpt lat="44.79649" lon="1.9888">
        <ele>287.225</ele>
        <time>2014-10-19T12:41:22.145Z</time>
      </trkpt>
      <trkpt lat="44.79655" lon="1.98869">
        <ele>289.238</ele>
        <time>2014-10-19T12:41:31.512Z</time>
      </trkpt>
      <trkpt lat="44.79662" lon="1.98861">
        <ele>291.342</ele>
        <time>2014-10-19T12:41:40.833Z</time>
      </trkpt>
      <trkpt lat="44.79671" lon="1.98858">
        <ele>293.259</ele>
        <time>2014-10-19T12:41:51.976Z</time>
      </trkpt>
      <trkpt lat="44.7968" lon="1.98856">
        <ele>294.773</ele>
        <time>2014-10-19T12:42:02.717Z</time>
      </trkpt>
      <trkpt lat="44.7969" lon="1.98858">
        <ele>295.821</ele>
        <time>2014-10-19T12:42:13.601Z</time>
      </trkpt>
      <trkpt lat="44.797" lon="1.9886">
        <ele>296.871</ele>
        <time>2014-10-19T12:42:21.966Z</time>
      </trkpt>
      <trkpt lat="44.79709" lon="1.98864">
        <ele>297.795</ele>
        <time>2014-10-19T12:42:28.644Z</time>
      </trkpt>
      <trkpt lat="44.79718" lon="1.98871">
        <ele>297.682</ele>
        <time>2014-10-19T12:42:35.332Z</time>
      </trkpt>
      <trkpt lat="44.79725" lon="1.98879">
        <ele>296.394</ele>
        <time>2014-10-19T12:42:42.692Z</time>
      </trkpt>
      <trkpt lat="44.79733" lon="1.98887">
        <ele>295.066</ele>
        <time>2014-10-19T12:42:51.380Z</time>
      </trkpt>
      <trkpt lat="44.7974" lon="1.98894">
        <ele>294.934</ele>
        <time>2014-10-19T12:43:01.151Z</time>
      </trkpt>
      <trkpt lat="44.79748" lon="1.98902">
        <ele>295.86</ele>
        <time>2014-10-19T12:43:13.577Z</time>
      </trkpt>
      <trkpt lat="44.79755" lon="1.98912">
        <ele>297.115</ele>
        <time>2014-10-19T12:43:22.868Z</time>
      </trkpt>
      <trkpt lat="44.79762" lon="1.9892">
        <ele>297.994</ele>
        <time>2014-10-19T12:43:31.526Z</time>
      </trkpt>
      <trkpt lat="44.7977" lon="1.98927">
        <ele>297.949</ele>
        <time>2014-10-19T12:43:40.920Z</time>
      </trkpt>
      <trkpt lat="44.79779" lon="1.98932">
        <ele>297.158</ele>
        <time>2014-10-19T12:43:50.577Z</time>
      </trkpt>
      <trkpt lat="44.79789" lon="1.98936">
        <ele>297.524</ele>
        <time>2014-10-19T12:44:00.006Z</time>
      </trkpt>
      <trkpt lat="44.79798" lon="1.9894">
        <ele>300.051</ele>
        <time>2014-10-19T12:44:08.107Z</time>
      </trkpt>
      <trkpt lat="44.79807" lon="1.98942">
        <ele>303.307</ele>
        <time>2014-10-19T12:44:16.678Z</time>
      </trkpt>
      <trkpt lat="44.79816" lon="1.98942">
        <ele>305.177</ele>
        <time>2014-10-19T12:44:26.333Z</time>
      </trkpt>
      <trkpt lat="44.79826" lon="1.98943">
        <ele>305.342</ele>
        <time>2014-10-19T12:44:35.635Z</time>
      </trkpt>
      <trkpt lat="44.79836" lon="1.98944">
        <ele>304.981</ele>
        <time>2014-10-19T12:44:45.071Z</time>
      </trkpt>
      <trkpt lat="44.79846" lon="1.98945">
        <ele>304.997</ele>
        <time>2014-10-19T12:44:53.416Z</time>
      </trkpt>
      <trkpt lat="44.79856" lon="1.98944">
        <ele>305.355</ele>
        <time>2014-10-19T12:45:01.103Z</time>
      </trkpt>
      <trkpt lat="44.79865" lon="1.98946">
        <ele>306.263</ele>
        <time>2014-10-19T12:45:09.451Z</time>
      </trkpt>
      <trkpt lat="44.79874" lon="1.98948">
        <ele>307.503</ele>
        <time>2014-10-19T12:45:18.831Z</time>
      </trkpt>
      <trkpt lat="44.79883" lon="1.98953">
        <ele>307.562</ele>
        <time>2014-10-19T12:45:28.221Z</time>
      </trkpt>
      <trkpt lat="44.79893" lon="1.98956">
        <ele>305.656</ele>
        <time>2014-10-19T12:45:37.210Z</time>
      </trkpt>
      <trkpt lat="44.799" lon="1.98949">
        <ele>303.561</ele>
        <time>2014-10-19T12:45:46.685Z</time>
      </trkpt>
      <trkpt lat="44.79906" lon="1.98937">
        <ele>303.249</ele>
        <time>2014-10-19T12:45:58.356Z</time>
      </trkpt>
      <trkpt lat="44.79911" lon="1.98926">
        <ele>304.1</ele>
        <time>2014-10-19T12:46:08.232Z</time>
      </trkpt>
      <trkpt lat="44.7992" lon="1.98919">
        <ele>303.841</ele>
        <time>2014-10-19T12:46:18.295Z</time>
      </trkpt>
      <trkpt lat="44.79927" lon="1.9893">
        <ele>301.746</ele>
        <time>2014-10-19T12:46:28.624Z</time>
      </trkpt>
      <trkpt lat="44.79932" lon="1.9894">
        <ele>299.22</ele>
        <time>2014-10-19T12:46:37.662Z</time>
      </trkpt>
      <trkpt lat="44.79938" lon="1.98951">
        <ele>297.252</ele>
        <time>2014-10-19T12:46:47.038Z</time>
      </trkpt>
      <trkpt lat="44.79945" lon="1.9896">
        <ele>295.24</ele>
        <time>2014-10-19T12:46:57.971Z</time>
      </trkpt>
      <trkpt lat="44.79945" lon="1.9896">
        <ele>292.793</ele>
        <time>2014-10-19T12:47:06.977Z</time>
      </trkpt>
      <trkpt lat="44.79945" lon="1.9896">
        <ele>291.077</ele>
        <time>2014-10-19T12:47:07.077Z</time>
      </trkpt>
      <trkpt lat="44.79949" lon="1.98978">
        <ele>291.367</ele>
        <time>2014-10-19T12:47:47.023Z</time>
      </trkpt>
      <trkpt lat="44.79952" lon="1.9899">
        <ele>292.656</ele>
        <time>2014-10-19T12:48:06.257Z</time>
      </trkpt>
      <trkpt lat="44.79944" lon="1.98984">
        <ele>292.518</ele>
        <time>2014-10-19T12:48:24.912Z</time>
      </trkpt>
      <trkpt lat="44.79942" lon="1.98971">
        <ele>290.123</ele>
        <time>2014-10-19T12:48:44.667Z</time>
      </trkpt>
      <trkpt lat="44.79935" lon="1.98962">
        <ele>287.216</ele>
        <time>2014-10-19T12:49:03.509Z</time>
      </trkpt>
      <trkpt lat="44.79929" lon="1.98953">
        <ele>285.579</ele>
        <time>2014-10-19T12:49:22.294Z</time>
      </trkpt>
      <trkpt lat="44.79926" lon="1.9894">
        <ele>285.982</ele>
        <time>2014-10-19T12:49:42.647Z</time>
      </trkpt>
      <trkpt lat="44.79921" lon="1.98927">
        <ele>288.929</ele>
        <time>2014-10-19T12:50:04.007Z</time>
      </trkpt>
      <trkpt lat="44.79919" lon="1.98914">
        <ele>293.414</ele>
        <time>2014-10-19T12:50:23.408Z</time>
      </trkpt>
      <trkpt lat="44.7992" lon="1.98902">
        <ele>296.993</ele>
        <time>2014-10-19T12:50:42.268Z</time>
      </trkpt>
      <trkpt lat="44.79921" lon="1.98888">
        <ele>298.206</ele>
        <time>2014-10-19T12:51:01.837Z</time>
      </trkpt>
      <trkpt lat="44.79924" lon="1.98876">
        <ele>297.435</ele>
        <time>2014-10-19T12:51:21.350Z</time>
      </trkpt>
      <trkpt lat="44.79925" lon="1.98863">
        <ele>296.106</ele>
        <time>2014-10-19T12:51:40.136Z</time>
      </trkpt>
      <trkpt lat="44.79928" lon="1.98849">
        <ele>295.395</ele>
        <time>2014-10-19T12:52:01.160Z</time>
      </trkpt>
      <trkpt lat="44.7993" lon="1.98836">
        <ele>295.507</ele>
        <time>2014-10-19T12:52:21.307Z</time>
      </trkpt>
      <trkpt lat="44.79933" lon="1.98823">
        <ele>296.493</ele>
        <time>2014-10-19T12:52:40.839Z</time>
      </trkpt>
      <trkpt lat="44.79935" lon="1.9881">
        <ele>298.213</ele>
        <time>2014-10-19T12:53:01.098Z</time>
      </trkpt>
      <trkpt lat="44.79939" lon="1.98797">
        <ele>300.059</ele>
        <time>2014-10-19T12:53:21.544Z</time>
      </trkpt>
      <trkpt lat="44.79942" lon="1.98785">
        <ele>301.882</ele>
        <time>2014-10-19T12:53:40.479Z</time>
      </trkpt>
      <trkpt lat="44.79945" lon="1.98771">
        <ele>303.668</ele>
        <time>2014-10-19T12:54:02.119Z</time>
      </trkpt>
      <trkpt lat="44.79946" lon="1.98758">
        <ele>304.915</ele>
        <time>2014-10-19T12:54:21.632Z</time>
      </trkpt>
      <trkpt lat="44.7995" lon="1.98746">
        <ele>305.084</ele>
        <time>2014-10-19T12:54:40.884Z</time>
      </trkpt>
      <trkpt lat="44.79953" lon="1.98734">
        <ele>304.622</ele>
        <time>2014-10-19T12:55:00.751Z</time>
      </trkpt>
      <trkpt lat="44.79958" lon="1.98722">
        <ele>305.043</ele>
        <time>2014-10-19T12:55:20.918Z</time>
      </trkpt>
      <trkpt lat="44.7996" lon="1.98708">
        <ele>307.289</ele>
        <time>2014-10-19T12:55:41.625Z</time>
      </trkpt>
      <trkpt lat="44.79963" lon="1.98695">
        <ele>310.449</ele>
        <time>2014-10-19T12:56:00.858Z</time>
      </trkpt>
      <trkpt lat="44.79966" lon="1.98682">
        <ele>312.883</ele>
        <time>2014-10-19T12:56:21.639Z</time>
      </trkpt>
      <trkpt lat="44.79968" lon="1.98669">
        <ele>314.087</ele>
        <time>2014-10-19T12:56:41.302Z</time>
      </trkpt>
      <trkpt lat="44.7997" lon="1.98657">
        <ele>314.915</ele>
        <time>2014-10-19T12:57:00.125Z</time>
      </trkpt>
      <trkpt lat="44.79976" lon="1.98645">
        <ele>315.853</ele>
        <time>2014-10-19T12:57:20.682Z</time>
      </trkpt>
      <trkpt lat="44.79982" lon="1.98635">
        <ele>316.532</ele>
        <time>2014-10-19T12:57:40.382Z</time>
      </trkpt>
      <trkpt lat="44.79973" lon="1.98637">
        <ele>317.622</ele>
        <time>2014-10-19T12:57:59.130Z</time>
      </trkpt>
      <trkpt lat="44.79965" lon="1.98644">
        <ele>319.82</ele>
        <time>2014-10-19T12:58:19.912Z</time>
      </trkpt>
      <trkpt lat="44.79957" lon="1.98653">
        <ele>321.46</ele>
        <time>2014-10-19T12:58:40.544Z</time>
      </trkpt>
      <trkpt lat="44.79951" lon="1.98663">
        <ele>321.049</ele>
        <time>2014-10-19T12:59:00.878Z</time>
      </trkpt>
      <trkpt lat="44.79944" lon="1.98673">
        <ele>320.834</ele>
        <time>2014-10-19T12:59:21.958Z</time>
      </trkpt>
      <trkpt lat="44.79935" lon="1.98681">
        <ele>322.85</ele>
        <time>2014-10-19T12:59:49.495Z</time>
      </trkpt>
      <trkpt lat="44.79927" lon="1.98686">
        <ele>325.539</ele>
        <time>2014-10-19T13:00:09.861Z</time>
      </trkpt>
      <trkpt lat="44.79918" lon="1.98691">
        <ele>327.57</ele>
        <time>2014-10-19T13:00:26.265Z</time>
      </trkpt>
      <trkpt lat="44.7991" lon="1.98698">
        <ele>329.414</ele>
        <time>2014-10-19T13:00:39.499Z</time>
      </trkpt>
      <trkpt lat="44.79901" lon="1.98703">
        <ele>330.037</ele>
        <time>2014-10-19T13:00:52.524Z</time>
      </trkpt>
      <trkpt lat="44.79893" lon="1.98709">
        <ele>328.556</ele>
        <time>2014-10-19T13:01:06.599Z</time>
      </trkpt>
      <trkpt lat="44.79886" lon="1.98719">
        <ele>327.179</ele>
        <time>2014-10-19T13:01:19.764Z</time>
      </trkpt>
      <trkpt lat="44.79879" lon="1.98726">
        <ele>328.351</ele>
        <time>2014-10-19T13:01:32.853Z</time>
      </trkpt>
      <trkpt lat="44.7987" lon="1.9873">
        <ele>331.277</ele>
        <time>2014-10-19T13:01:46.756Z</time>
      </trkpt>
      <trkpt lat="44.79863" lon="1.98738">
        <ele>333.666</ele>
        <time>2014-10-19T13:01:59.900Z</time>
      </trkpt>
      <trkpt lat="44.79855" lon="1.98745">
        <ele>334.621</ele>
        <time>2014-10-19T13:02:13.271Z</time>
      </trkpt>
      <trkpt lat="44.79849" lon="1.98755">
        <ele>335.829</ele>
        <time>2014-10-19T13:02:29.006Z</time>
      </trkpt>
      <trkpt lat="44.7984" lon="1.98761">
        <ele>337.894</ele>
        <time>2014-10-19T13:02:46.357Z</time>
      </trkpt>
      <trkpt lat="44.79833" lon="1.9877">
        <ele>339.359</ele>
        <time>2014-10-19T13:03:00.902Z</time>
      </trkpt>
      <trkpt lat="44.79826" lon="1.98779">
        <ele>339.997</ele>
        <time>2014-10-19T13:03:14.417Z</time>
      </trkpt>
      <trkpt lat="44.79816" lon="1.98781">
        <ele>340.682</ele>
        <time>2014-10-19T13:03:29.018Z</time>
      </trkpt>
      <trkpt lat="44.79806" lon="1.98778">
        <ele>342.194</ele>
        <time>2014-10-19T13:03:44.466Z</time>
      </trkpt>
      <trkpt lat="44.79797" lon="1.98776">
        <ele>345.506</ele>
        <time>2014-10-19T13:03:58.543Z</time>
      </trkpt>
      <trkpt lat="44.79787" lon="1.98774">
        <ele>349.482</ele>
        <time>2014-10-19T13:04:11.454Z</time>
      </trkpt>
      <trkpt lat="44.79778" lon="1.98772">
        <ele>352.216</ele>
        <time>2014-10-19T13:04:22.500Z</time>
      </trkpt>
      <trkpt lat="44.7977" lon="1.98767">
        <ele>353.521</ele>
        <time>2014-10-19T13:04:33.567Z</time>
      </trkpt>
      <trkpt lat="44.79761" lon="1.98759">
        <ele>354.587</ele>
        <time>2014-10-19T13:04:47.839Z</time>
      </trkpt>
      <trkpt lat="44.79753" lon="1.98752">
        <ele>356.62</ele>
        <time>2014-10-19T13:05:01.954Z</time>
      </trkpt>
      <trkpt lat="44.79745" lon="1.98741">
        <ele>359.372</ele>
        <time>2014-10-19T13:05:18.611Z</time>
      </trkpt>
      <trkpt lat="44.79737" lon="1.98733">
        <ele>360.937</ele>
        <time>2014-10-19T13:05:33.494Z</time>
      </trkpt>
      <trkpt lat="44.79729" lon="1.98724">
        <ele>359.815</ele>
        <time>2014-10-19T13:05:46.601Z</time>
      </trkpt>
      <trkpt lat="44.79721" lon="1.98717">
        <ele>356.879</ele>
        <time>2014-10-19T13:05:57.789Z</time>
      </trkpt>
      <trkpt lat="44.79714" lon="1.98707">
        <ele>354.439</ele>
        <time>2014-10-19T13:06:10.609Z</time>
      </trkpt>
      <trkpt lat="44.79707" lon="1.98698">
        <ele>354.755</ele>
        <time>2014-10-19T13:06:24.390Z</time>
      </trkpt>
      <trkpt lat="44.79699" lon="1.9869">
        <ele>358.219</ele>
        <time>2014-10-19T13:06:36.266Z</time>
      </trkpt>
      <trkpt lat="44.79692" lon="1.98682">
        <ele>362.446</ele>
        <time>2014-10-19T13:06:47.675Z</time>
      </trkpt>
      <trkpt lat="44.79686" lon="1.98671">
        <ele>364.976</ele>
        <time>2014-10-19T13:07:00.781Z</time>
      </trkpt>
      <trkpt lat="44.79681" lon="1.9866">
        <ele>365.714</ele>
        <time>2014-10-19T13:07:14.059Z</time>
      </trkpt>
      <trkpt lat="44.79672" lon="1.98656">
        <ele>365.185</ele>
        <time>2014-10-19T13:07:25.669Z</time>
      </trkpt>
      <trkpt lat="44.79663" lon="1.98654">
        <ele>363.924</ele>
        <time>2014-10-19T13:07:38.365Z</time>
      </trkpt>
      <trkpt lat="44.79654" lon="1.98658">
        <ele>363.942</ele>
        <time>2014-10-19T13:07:48.682Z</time>
      </trkpt>
      <trkpt lat="44.79645" lon="1.98659">
        <ele>366.619</ele>
        <time>2014-10-19T13:07:59.161Z</time>
      </trkpt>
      <trkpt lat="44.79636" lon="1.98662">
        <ele>371.147</ele>
        <time>2014-10-19T13:08:11.121Z</time>
      </trkpt>
      <trkpt lat="44.79627" lon="1.98663">
        <ele>376.577</ele>
        <time>2014-10-19T13:08:23.901Z</time>
      </trkpt>
      <trkpt lat="44.79617" lon="1.98665">
        <ele>381.667</ele>
        <time>2014-10-19T13:08:35.800Z</time>
      </trkpt>
      <trkpt lat="44.79607" lon="1.98667">
        <ele>384.803</ele>
        <time>2014-10-19T13:08:46.167Z</time>
      </trkpt>
      <trkpt lat="44.79597" lon="1.98668">
        <ele>386.687</ele>
        <time>2014-10-19T13:08:57.763Z</time>
      </trkpt>
      <trkpt lat="44.79588" lon="1.98669">
        <ele>389.276</ele>
        <time>2014-10-19T13:09:13.884Z</time>
      </trkpt>
      <trkpt lat="44.79579" lon="1.98673">
        <ele>392.882</ele>
        <time>2014-10-19T13:09:26.928Z</time>
      </trkpt>
      <trkpt lat="44.7957" lon="1.98676">
        <ele>396.089</ele>
        <time>2014-10-19T13:09:38.556Z</time>
      </trkpt>
      <trkpt lat="44.79561" lon="1.98681">
        <ele>397.936</ele>
        <time>2014-10-19T13:09:51.551Z</time>
      </trkpt>
      <trkpt lat="44.79553" lon="1.98685">
        <ele>399.402</ele>
        <time>2014-10-19T13:10:04.536Z</time>
      </trkpt>
      <trkpt lat="44.79544" lon="1.98687">
        <ele>401.457</ele>
        <time>2014-10-19T13:10:17.367Z</time>
      </trkpt>
      <trkpt lat="44.79534" lon="1.98688">
        <ele>403.054</ele>
        <time>2014-10-19T13:10:30.106Z</time>
      </trkpt>
      <trkpt lat="44.79525" lon="1.98693">
        <ele>403.169</ele>
        <time>2014-10-19T13:10:43.308Z</time>
      </trkpt>
      <trkpt lat="44.79517" lon="1.98697">
        <ele>403.258</ele>
        <time>2014-10-19T13:10:57.578Z</time>
      </trkpt>
      <trkpt lat="44.79508" lon="1.98702">
        <ele>405.57</ele>
        <time>2014-10-19T13:11:11.637Z</time>
      </trkpt>
      <trkpt lat="44.79499" lon="1.98706">
        <ele>409.727</ele>
        <time>2014-10-19T13:11:24.718Z</time>
      </trkpt>
      <trkpt lat="44.7949" lon="1.98707">
        <ele>413.238</ele>
        <time>2014-10-19T13:11:38.150Z</time>
      </trkpt>
      <trkpt lat="44.79482" lon="1.98711">
        <ele>416.014</ele>
        <time>2014-10-19T13:11:54.009Z</time>
      </trkpt>
      <trkpt lat="44.79473" lon="1.98711">
        <ele>419.298</ele>
        <time>2014-10-19T13:12:07.215Z</time>
      </trkpt>
      <trkpt lat="44.79463" lon="1.98712">
        <ele>422.151</ele>
        <time>2014-10-19T13:12:23.064Z</time>
      </trkpt>
      <trkpt lat="44.79454" lon="1.98711">
        <ele>423.73</ele>
        <time>2014-10-19T13:12:33.846Z</time>
      </trkpt>
      <trkpt lat="44.79444" lon="1.98709">
        <ele>424.528</ele>
        <time>2014-10-19T13:12:46.097Z</time>
      </trkpt>
      <trkpt lat="44.79436" lon="1.98706">
        <ele>424.847</ele>
        <time>2014-10-19T13:12:58.791Z</time>
      </trkpt>
      <trkpt lat="44.79428" lon="1.987">
        <ele>424.832</ele>
        <time>2014-10-19T13:13:10.186Z</time>
      </trkpt>
      <trkpt lat="44.79419" lon="1.98694">
        <ele>425.176</ele>
        <time>2014-10-19T13:13:23.776Z</time>
      </trkpt>
      <trkpt lat="44.7941" lon="1.98687">
        <ele>426.677</ele>
        <time>2014-10-19T13:13:37.390Z</time>
      </trkpt>
      <trkpt lat="44.79402" lon="1.9868">
        <ele>429.111</ele>
        <time>2014-10-19T13:13:49.364Z</time>
      </trkpt>
      <trkpt lat="44.79394" lon="1.98672">
        <ele>431.56</ele>
        <time>2014-10-19T13:14:01.685Z</time>
      </trkpt>
      <trkpt lat="44.79386" lon="1.98666">
        <ele>433.513</ele>
        <time>2014-10-19T13:14:13.013Z</time>
      </trkpt>
      <trkpt lat="44.79376" lon="1.9866">
        <ele>434.589</ele>
        <time>2014-10-19T13:14:25.840Z</time>
      </trkpt>
      <trkpt lat="44.79367" lon="1.98655">
        <ele>434.568</ele>
        <time>2014-10-19T13:14:37.989Z</time>
      </trkpt>
      <trkpt lat="44.79358" lon="1.9865">
        <ele>433.229</ele>
        <time>2014-10-19T13:14:50.362Z</time>
      </trkpt>
      <trkpt lat="44.79349" lon="1.98646">
        <ele>431.007</ele>
        <time>2014-10-19T13:15:01.488Z</time>
      </trkpt>
      <trkpt lat="44.7934" lon="1.98641">
        <ele>429.601</ele>
        <time>2014-10-19T13:15:13.251Z</time>
      </trkpt>
      <trkpt lat="44.79331" lon="1.98638">
        <ele>429.907</ele>
        <time>2014-10-19T13:15:24.749Z</time>
      </trkpt>
      <trkpt lat="44.79322" lon="1.98633">
        <ele>430.933</ele>
        <time>2014-10-19T13:15:37.099Z</time>
      </trkpt>
      <trkpt lat="44.79312" lon="1.98629">
        <ele>431.722</ele>
        <time>2014-10-19T13:15:49.095Z</time>
      </trkpt>
      <trkpt lat="44.79302" lon="1.98627">
        <ele>432.218</ele>
        <time>2014-10-19T13:16:01.246Z</time>
      </trkpt>
      <trkpt lat="44.79293" lon="1.98624">
        <ele>432.08</ele>
        <time>2014-10-19T13:16:11.977Z</time>
      </trkpt>
      <trkpt lat="44.79293" lon="1.98624">
        <ele>431.112</ele>
        <time>2014-10-19T13:16:21.980Z</time>
      </trkpt>
      <trkpt lat="44.79287" lon="1.98615">
        <ele>430.033</ele>
        <time>2014-10-19T13:16:48.238Z</time>
      </trkpt>
      <trkpt lat="44.79292" lon="1.98612">
        <ele>429.771</ele>
        <time>2014-10-19T13:31:21.405Z</time>
      </trkpt>
      <trkpt lat="44.79292" lon="1.98612">
        <ele>430.069</ele>
        <time>2014-10-19T13:31:21.505Z</time>
      </trkpt>
      <trkpt lat="44.79295" lon="1.986">
        <ele>430.051</ele>
        <time>2014-10-19T13:31:43.093Z</time>
      </trkpt>
      <trkpt lat="44.79295" lon="1.98598">
        <ele>429.374</ele>
        <time>2014-10-19T13:31:43.884Z</time>
      </trkpt>
      <trkpt lat="44.79298" lon="1.98586">
        <ele>427.895</ele>
        <time>2014-10-19T13:31:52.711Z</time>
      </trkpt>
      <trkpt lat="44.79302" lon="1.98573">
        <ele>425.447</ele>
        <time>2014-10-19T13:32:01.580Z</time>
      </trkpt>
      <trkpt lat="44.79305" lon="1.9856">
        <ele>422.883</ele>
        <time>2014-10-19T13:32:10.882Z</time>
      </trkpt>
      <trkpt lat="44.79309" lon="1.98547">
        <ele>420.855</ele>
        <time>2014-10-19T13:32:19.753Z</time>
      </trkpt>
      <trkpt lat="44.79314" lon="1.98534">
        <ele>419.299</ele>
        <time>2014-10-19T13:32:28.480Z</time>
      </trkpt>
      <trkpt lat="44.79322" lon="1.98526">
        <ele>418.385</ele>
        <time>2014-10-19T13:32:37.335Z</time>
      </trkpt>
      <trkpt lat="44.79327" lon="1.98514">
        <ele>418.304</ele>
        <time>2014-10-19T13:32:45.946Z</time>
      </trkpt>
      <trkpt lat="44.79332" lon="1.98502">
        <ele>418.681</ele>
        <time>2014-10-19T13:32:53.762Z</time>
      </trkpt>
      <trkpt lat="44.79337" lon="1.98491">
        <ele>418.85</ele>
        <time>2014-10-19T13:33:01.373Z</time>
      </trkpt>
      <trkpt lat="44.79342" lon="1.98481">
        <ele>418.412</ele>
        <time>2014-10-19T13:33:08.803Z</time>
      </trkpt>
      <trkpt lat="44.79347" lon="1.98469">
        <ele>417.578</ele>
        <time>2014-10-19T13:33:17.072Z</time>
      </trkpt>
      <trkpt lat="44.79353" lon="1.98459">
        <ele>416.653</ele>
        <time>2014-10-19T13:33:24.557Z</time>
      </trkpt>
      <trkpt lat="44.79361" lon="1.98452">
        <ele>415.51</ele>
        <time>2014-10-19T13:33:32.513Z</time>
      </trkpt>
      <trkpt lat="44.79365" lon="1.98439">
        <ele>414.139</ele>
        <time>2014-10-19T13:33:41.344Z</time>
      </trkpt>
      <trkpt lat="44.79366" lon="1.98426">
        <ele>412.838</ele>
        <time>2014-10-19T13:33:49.388Z</time>
      </trkpt>
      <trkpt lat="44.79371" lon="1.98415">
        <ele>411.722</ele>
        <time>2014-10-19T13:33:57.113Z</time>
      </trkpt>
      <trkpt lat="44.79375" lon="1.98403">
        <ele>410.572</ele>
        <time>2014-10-19T13:34:04.462Z</time>
      </trkpt>
      <trkpt lat="44.79379" lon="1.9839">
        <ele>409.487</ele>
        <time>2014-10-19T13:34:12.266Z</time>
      </trkpt>
      <trkpt lat="44.79384" lon="1.9838">
        <ele>408.841</ele>
        <time>2014-10-19T13:34:20.080Z</time>
      </trkpt>
      <trkpt lat="44.7939" lon="1.98369">
        <ele>408.776</ele>
        <time>2014-10-19T13:34:28.502Z</time>
      </trkpt>
      <trkpt lat="44.79396" lon="1.98359">
        <ele>408.386</ele>
        <time>2014-10-19T13:34:36.712Z</time>
      </trkpt>
      <trkpt lat="44.79401" lon="1.98348">
        <ele>406.062</ele>
        <time>2014-10-19T13:34:45.693Z</time>
      </trkpt>
      <trkpt lat="44.79405" lon="1.98336">
        <ele>402.051</ele>
        <time>2014-10-19T13:34:55.307Z</time>
      </trkpt>
      <trkpt lat="44.79407" lon="1.98323">
        <ele>398.704</ele>
        <time>2014-10-19T13:35:03.328Z</time>
      </trkpt>
      <trkpt lat="44.79409" lon="1.9831">
        <ele>397.112</ele>
        <time>2014-10-19T13:35:10.912Z</time>
      </trkpt>
      <trkpt lat="44.79413" lon="1.98299">
        <ele>396.413</ele>
        <time>2014-10-19T13:35:18.953Z</time>
      </trkpt>
      <trkpt lat="44.79418" lon="1.98288">
        <ele>395.954</ele>
        <time>2014-10-19T13:35:27.522Z</time>
      </trkpt>
      <trkpt lat="44.79422" lon="1.98275">
        <ele>395.69</ele>
        <time>2014-10-19T13:35:35.697Z</time>
      </trkpt>
      <trkpt lat="44.79422" lon="1.98262">
        <ele>395.033</ele>
        <time>2014-10-19T13:35:43.478Z</time>
      </trkpt>
      <trkpt lat="44.79425" lon="1.98248">
        <ele>393.312</ele>
        <time>2014-10-19T13:35:52.474Z</time>
      </trkpt>
      <trkpt lat="44.79424" lon="1.98234">
        <ele>390.47</ele>
        <time>2014-10-19T13:36:01.919Z</time>
      </trkpt>
      <trkpt lat="44.79424" lon="1.98221">
        <ele>387.051</ele>
        <time>2014-10-19T13:36:09.957Z</time>
      </trkpt>
      <trkpt lat="44.79423" lon="1.98207">
        <ele>384.292</ele>
        <time>2014-10-19T13:36:18.138Z</time>
      </trkpt>
      <trkpt lat="44.79421" lon="1.98194">
        <ele>383.076</ele>
        <time>2014-10-19T13:36:25.523Z</time>
      </trkpt>
      <trkpt lat="44.79422" lon="1.9818">
        <ele>382.958</ele>
        <time>2014-10-19T13:36:34.093Z</time>
      </trkpt>
      <trkpt lat="44.79424" lon="1.98167">
        <ele>383.09</ele>
        <time>2014-10-19T13:36:43.987Z</time>
      </trkpt>
      <trkpt lat="44.79424" lon="1.98167">
        <ele>382.984</ele>
        <time>2014-10-19T13:36:45.985Z</time>
      </trkpt>
      <trkpt lat="44.79424" lon="1.98167">
        <ele>382.73</ele>
        <time>2014-10-19T13:36:46.085Z</time>
      </trkpt>
      <trkpt lat="44.79424" lon="1.98155">
        <ele>382.512</ele>
        <time>2014-10-19T13:37:05.769Z</time>
      </trkpt>
      <trkpt lat="44.79429" lon="1.98144">
        <ele>381.465</ele>
        <time>2014-10-19T13:37:15.887Z</time>
      </trkpt>
      <trkpt lat="44.79434" lon="1.98131">
        <ele>378.756</ele>
        <time>2014-10-19T13:37:24.531Z</time>
      </trkpt>
      <trkpt lat="44.79439" lon="1.98121">
        <ele>376.191</ele>
        <time>2014-10-19T13:37:32.400Z</time>
      </trkpt>
      <trkpt lat="44.79446" lon="1.98111">
        <ele>375.812</ele>
        <time>2014-10-19T13:37:40.810Z</time>
      </trkpt>
      <trkpt lat="44.79453" lon="1.98101">
        <ele>377.165</ele>
        <time>2014-10-19T13:37:49.225Z</time>
      </trkpt>
      <trkpt lat="44.79458" lon="1.98089">
        <ele>378.273</ele>
        <time>2014-10-19T13:37:58.160Z</time>
      </trkpt>
      <trkpt lat="44.79463" lon="1.98078">
        <ele>377.611</ele>
        <time>2014-10-19T13:38:06.754Z</time>
      </trkpt>
      <trkpt lat="44.79467" lon="1.98066">
        <ele>375.893</ele>
        <time>2014-10-19T13:38:15.985Z</time>
      </trkpt>
      <trkpt lat="44.79467" lon="1.98066">
        <ele>374.78</ele>
        <time>2014-10-19T13:38:19.980Z</time>
      </trkpt>
      <trkpt lat="44.79467" lon="1.98066">
        <ele>374.639</ele>
        <time>2014-10-19T13:38:20.616Z</time>
      </trkpt>
      <trkpt lat="44.7947" lon="1.98052">
        <ele>374.669</ele>
        <time>2014-10-19T13:38:47.534Z</time>
      </trkpt>
      <trkpt lat="44.79472" lon="1.98039">
        <ele>374.477</ele>
        <time>2014-10-19T13:38:56.912Z</time>
      </trkpt>
      <trkpt lat="44.79476" lon="1.98027">
        <ele>372.693</ele>
        <time>2014-10-19T13:39:04.877Z</time>
      </trkpt>
      <trkpt lat="44.7948" lon="1.98016">
        <ele>367.766</ele>
        <time>2014-10-19T13:39:13.500Z</time>
      </trkpt>
      <trkpt lat="44.79484" lon="1.98002">
        <ele>361.667</ele>
        <time>2014-10-19T13:39:23.228Z</time>
      </trkpt>
      <trkpt lat="44.79487" lon="1.9799">
        <ele>357.555</ele>
        <time>2014-10-19T13:39:32.112Z</time>
      </trkpt>
      <trkpt lat="44.79491" lon="1.97979">
        <ele>357.485</ele>
        <time>2014-10-19T13:39:40.852Z</time>
      </trkpt>
      <trkpt lat="44.79496" lon="1.97968">
        <ele>361.605</ele>
        <time>2014-10-19T13:39:49.143Z</time>
      </trkpt>
      <trkpt lat="44.79501" lon="1.97956">
        <ele>366.423</ele>
        <time>2014-10-19T13:39:57.156Z</time>
      </trkpt>
      <trkpt lat="44.79508" lon="1.97946">
        <ele>368.437</ele>
        <time>2014-10-19T13:40:05.711Z</time>
      </trkpt>
      <trkpt lat="44.79514" lon="1.97935">
        <ele>367.478</ele>
        <time>2014-10-19T13:40:14.947Z</time>
      </trkpt>
      <trkpt lat="44.79521" lon="1.97926">
        <ele>365.586</ele>
        <time>2014-10-19T13:40:23.458Z</time>
      </trkpt>
      <trkpt lat="44.79527" lon="1.97915">
        <ele>365.263</ele>
        <time>2014-10-19T13:40:32.726Z</time>
      </trkpt>
      <trkpt lat="44.79534" lon="1.97903">
        <ele>367.087</ele>
        <time>2014-10-19T13:40:42.634Z</time>
      </trkpt>
      <trkpt lat="44.7954" lon="1.97894">
        <ele>370.154</ele>
        <time>2014-10-19T13:40:50.111Z</time>
      </trkpt>
      <trkpt lat="44.79546" lon="1.97883">
        <ele>373.462</ele>
        <time>2014-10-19T13:40:58.271Z</time>
      </trkpt>
      <trkpt lat="44.79553" lon="1.97875">
        <ele>375.551</ele>
        <time>2014-10-19T13:41:06.218Z</time>
      </trkpt>
      <trkpt lat="44.79561" lon="1.97866">
        <ele>375.794</ele>
        <time>2014-10-19T13:41:14.666Z</time>
      </trkpt>
      <trkpt lat="44.79568" lon="1.97856">
        <ele>376.117</ele>
        <time>2014-10-19T13:41:22.927Z</time>
      </trkpt>
      <trkpt lat="44.79576" lon="1.9785">
        <ele>378.079</ele>
        <time>2014-10-19T13:41:30.836Z</time>
      </trkpt>
      <trkpt lat="44.79584" lon="1.97843">
        <ele>380.439</ele>
        <time>2014-10-19T13:41:39.601Z</time>
      </trkpt>
      <trkpt lat="44.79592" lon="1.97837">
        <ele>381.365</ele>
        <time>2014-10-19T13:41:47.649Z</time>
      </trkpt>
      <trkpt lat="44.79601" lon="1.97833">
        <ele>380.874</ele>
        <time>2014-10-19T13:41:55.346Z</time>
      </trkpt>
      <trkpt lat="44.79608" lon="1.97825">
        <ele>380.49</ele>
        <time>2014-10-19T13:42:03.390Z</time>
      </trkpt>
      <trkpt lat="44.79617" lon="1.97817">
        <ele>382.405</ele>
        <time>2014-10-19T13:42:12.339Z</time>
      </trkpt>
      <trkpt lat="44.79625" lon="1.9781">
        <ele>385.708</ele>
        <time>2014-10-19T13:42:20.153Z</time>
      </trkpt>
      <trkpt lat="44.79634" lon="1.97804">
        <ele>388.058</ele>
        <time>2014-10-19T13:42:28.354Z</time>
      </trkpt>
      <trkpt lat="44.79642" lon="1.97797">
        <ele>389.611</ele>
        <time>2014-10-19T13:42:36.007Z</time>
      </trkpt>
      <trkpt lat="44.7965" lon="1.97791">
        <ele>391.259</ele>
        <time>2014-10-19T13:42:43.698Z</time>
      </trkpt>
      <trkpt lat="44.79658" lon="1.97785">
        <ele>392.688</ele>
        <time>2014-10-19T13:42:51.421Z</time>
      </trkpt>
      <trkpt lat="44.79667" lon="1.97779">
        <ele>393.739</ele>
        <time>2014-10-19T13:43:00.502Z</time>
      </trkpt>
      <trkpt lat="44.79675" lon="1.97772">
        <ele>393.538</ele>
        <time>2014-10-19T13:43:08.711Z</time>
      </trkpt>
      <trkpt lat="44.79684" lon="1.97767">
        <ele>391.844</ele>
        <time>2014-10-19T13:43:16.360Z</time>
      </trkpt>
      <trkpt lat="44.79692" lon="1.97762">
        <ele>390.678</ele>
        <time>2014-10-19T13:43:24.390Z</time>
      </trkpt>
      <trkpt lat="44.79702" lon="1.97754">
        <ele>391.62</ele>
        <time>2014-10-19T13:43:33.709Z</time>
      </trkpt>
      <trkpt lat="44.7971" lon="1.97747">
        <ele>393.128</ele>
        <time>2014-10-19T13:43:42.438Z</time>
      </trkpt>
      <trkpt lat="44.79719" lon="1.9774">
        <ele>393.482</ele>
        <time>2014-10-19T13:43:50.618Z</time>
      </trkpt>
      <trkpt lat="44.79727" lon="1.97733">
        <ele>392.993</ele>
        <time>2014-10-19T13:43:58.759Z</time>
      </trkpt>
      <trkpt lat="44.79736" lon="1.97726">
        <ele>392.484</ele>
        <time>2014-10-19T13:44:08.381Z</time>
      </trkpt>
      <trkpt lat="44.79745" lon="1.97718">
        <ele>392.957</ele>
        <time>2014-10-19T13:44:16.540Z</time>
      </trkpt>
      <trkpt lat="44.79753" lon="1.97714">
        <ele>394.826</ele>
        <time>2014-10-19T13:44:24.455Z</time>
      </trkpt>
      <trkpt lat="44.79761" lon="1.97704">
        <ele>396.847</ele>
        <time>2014-10-19T13:44:32.792Z</time>
      </trkpt>
      <trkpt lat="44.79769" lon="1.97698">
        <ele>397.841</ele>
        <time>2014-10-19T13:44:40.524Z</time>
      </trkpt>
      <trkpt lat="44.79778" lon="1.97695">
        <ele>397.997</ele>
        <time>2014-10-19T13:44:47.903Z</time>
      </trkpt>
      <trkpt lat="44.79787" lon="1.97694">
        <ele>397.895</ele>
        <time>2014-10-19T13:44:56.200Z</time>
      </trkpt>
      <trkpt lat="44.79797" lon="1.97695">
        <ele>398.096</ele>
        <time>2014-10-19T13:45:06.458Z</time>
      </trkpt>
      <trkpt lat="44.798" lon="1.97683">
        <ele>398.852</ele>
        <time>2014-10-19T13:45:17.065Z</time>
      </trkpt>
      <trkpt lat="44.79792" lon="1.97676">
        <ele>399.835</ele>
        <time>2014-10-19T13:45:25.493Z</time>
      </trkpt>
      <trkpt lat="44.79784" lon="1.9767">
        <ele>400.617</ele>
        <time>2014-10-19T13:45:32.640Z</time>
      </trkpt>
      <trkpt lat="44.79776" lon="1.97665">
        <ele>401.089</ele>
        <time>2014-10-19T13:45:39.612Z</time>
      </trkpt>
      <trkpt lat="44.79767" lon="1.97661">
        <ele>401.462</ele>
        <time>2014-10-19T13:45:46.652Z</time>
      </trkpt>
      <trkpt lat="44.79758" lon="1.97657">
        <ele>401.891</ele>
        <time>2014-10-19T13:45:53.732Z</time>
      </trkpt>
      <trkpt lat="44.79749" lon="1.97653">
        <ele>402.327</ele>
        <time>2014-10-19T13:46:01.208Z</time>
      </trkpt>
      <trkpt lat="44.7974" lon="1.97649">
        <ele>402.658</ele>
        <time>2014-10-19T13:46:07.930Z</time>
      </trkpt>
      <trkpt lat="44.79731" lon="1.97646">
        <ele>402.596</ele>
        <time>2014-10-19T13:46:15.166Z</time>
      </trkpt>
      <trkpt lat="44.79722" lon="1.97642">
        <ele>401.983</ele>
        <time>2014-10-19T13:46:22.837Z</time>
      </trkpt>
      <trkpt lat="44.79713" lon="1.9764">
        <ele>401.337</ele>
        <time>2014-10-19T13:46:30.414Z</time>
      </trkpt>
      <trkpt lat="44.79702" lon="1.97637">
        <ele>401.285</ele>
        <time>2014-10-19T13:46:37.864Z</time>
      </trkpt>
      <trkpt lat="44.79693" lon="1.97634">
        <ele>401.836</ele>
        <time>2014-10-19T13:46:45.497Z</time>
      </trkpt>
      <trkpt lat="44.79684" lon="1.97629">
        <ele>403.064</ele>
        <time>2014-10-19T13:46:53.733Z</time>
      </trkpt>
      <trkpt lat="44.79676" lon="1.97625">
        <ele>404.872</ele>
        <time>2014-10-19T13:47:01.471Z</time>
      </trkpt>
      <trkpt lat="44.79667" lon="1.97621">
        <ele>406.448</ele>
        <time>2014-10-19T13:47:08.224Z</time>
      </trkpt>
      <trkpt lat="44.79658" lon="1.97615">
        <ele>407.183</ele>
        <time>2014-10-19T13:47:15.202Z</time>
      </trkpt>
      <trkpt lat="44.79651" lon="1.97607">
        <ele>407.276</ele>
        <time>2014-10-19T13:47:22.228Z</time>
      </trkpt>
      <trkpt lat="44.79643" lon="1.976">
        <ele>407.054</ele>
        <time>2014-10-19T13:47:30.023Z</time>
      </trkpt>
      <trkpt lat="44.79635" lon="1.97593">
        <ele>406.785</ele>
        <time>2014-10-19T13:47:38.323Z</time>
      </trkpt>
      <trkpt lat="44.79626" lon="1.97587">
        <ele>406.781</ele>
        <time>2014-10-19T13:47:46.094Z</time>
      </trkpt>
      <trkpt lat="44.79618" lon="1.9758">
        <ele>407.339</ele>
        <time>2014-10-19T13:47:53.801Z</time>
      </trkpt>
      <trkpt lat="44.79611" lon="1.97571">
        <ele>408.322</ele>
        <time>2014-10-19T13:48:01.785Z</time>
      </trkpt>
      <trkpt lat="44.79603" lon="1.97563">
        <ele>409.124</ele>
        <time>2014-10-19T13:48:10.434Z</time>
      </trkpt>
      <trkpt lat="44.79596" lon="1.97555">
        <ele>409.523</ele>
        <time>2014-10-19T13:48:18.118Z</time>
      </trkpt>
      <trkpt lat="44.79588" lon="1.97546">
        <ele>409.578</ele>
        <time>2014-10-19T13:48:26.761Z</time>
      </trkpt>
      <trkpt lat="44.79582" lon="1.97536">
        <ele>409.523</ele>
        <time>2014-10-19T13:48:36.988Z</time>
      </trkpt>
      <trkpt lat="44.79582" lon="1.97536">
        <ele>409.537</ele>
        <time>2014-10-19T13:48:47.991Z</time>
      </trkpt>
      <trkpt lat="44.79581" lon="1.97532">
        <ele>409.582</ele>
        <time>2014-10-19T13:48:51.665Z</time>
      </trkpt>
      <trkpt lat="44.79581" lon="1.97532">
        <ele>409.64</ele>
        <time>2014-10-19T13:51:04.991Z</time>
      </trkpt>
      <trkpt lat="44.79581" lon="1.97532">
        <ele>409.786</ele>
        <time>2014-10-19T13:51:05.091Z</time>
      </trkpt>
      <trkpt lat="44.79574" lon="1.97514">
        <ele>409.88</ele>
        <time>2014-10-19T13:51:42.953Z</time>
      </trkpt>
      <trkpt lat="44.79573" lon="1.97513">
        <ele>409.914</ele>
        <time>2014-10-19T13:51:44.320Z</time>
      </trkpt>
      <trkpt lat="44.79568" lon="1.97502">
        <ele>410.03</ele>
        <time>2014-10-19T13:51:53.264Z</time>
      </trkpt>
      <trkpt lat="44.79567" lon="1.9749">
        <ele>410.418</ele>
        <time>2014-10-19T13:52:01.067Z</time>
      </trkpt>
      <trkpt lat="44.79571" lon="1.97477">
        <ele>411.072</ele>
        <time>2014-10-19T13:52:08.518Z</time>
      </trkpt>
      <trkpt lat="44.79576" lon="1.97465">
        <ele>412.443</ele>
        <time>2014-10-19T13:52:15.436Z</time>
      </trkpt>
      <trkpt lat="44.7958" lon="1.97454">
        <ele>414.801</ele>
        <time>2014-10-19T13:52:21.679Z</time>
      </trkpt>
      <trkpt lat="44.79586" lon="1.97443">
        <ele>417.085</ele>
        <time>2014-10-19T13:52:28.858Z</time>
      </trkpt>
      <trkpt lat="44.7959" lon="1.97431">
        <ele>418.02</ele>
        <time>2014-10-19T13:52:35.785Z</time>
      </trkpt>
      <trkpt lat="44.79594" lon="1.97418">
        <ele>416.947</ele>
        <time>2014-10-19T13:52:43.349Z</time>
      </trkpt>
      <trkpt lat="44.796" lon="1.97408">
        <ele>414.143</ele>
        <time>2014-10-19T13:52:50.549Z</time>
      </trkpt>
      <trkpt lat="44.79605" lon="1.97397">
        <ele>411.293</ele>
        <time>2014-10-19T13:52:57.829Z</time>
      </trkpt>
      <trkpt lat="44.79609" lon="1.97385">
        <ele>409.778</ele>
        <time>2014-10-19T13:53:05.652Z</time>
      </trkpt>
      <trkpt lat="44.79611" lon="1.97373">
        <ele>408.934</ele>
        <time>2014-10-19T13:53:13.539Z</time>
      </trkpt>
      <trkpt lat="44.79615" lon="1.97359">
        <ele>406.933</ele>
        <time>2014-10-19T13:53:22.926Z</time>
      </trkpt>
      <trkpt lat="44.79618" lon="1.97346">
        <ele>403.593</ele>
        <time>2014-10-19T13:53:31.033Z</time>
      </trkpt>
      <trkpt lat="44.79619" lon="1.97332">
        <ele>401.086</ele>
        <time>2014-10-19T13:53:38.285Z</time>
      </trkpt>
      <trkpt lat="44.79621" lon="1.97319">
        <ele>400.664</ele>
        <time>2014-10-19T13:53:45.207Z</time>
      </trkpt>
      <trkpt lat="44.79625" lon="1.97306">
        <ele>400.866</ele>
        <time>2014-10-19T13:53:52.620Z</time>
      </trkpt>
      <trkpt lat="44.79628" lon="1.97293">
        <ele>400.266</ele>
        <time>2014-10-19T13:53:59.985Z</time>
      </trkpt>
      <trkpt lat="44.79631" lon="1.97281">
        <ele>399.519</ele>
        <time>2014-10-19T13:54:07.843Z</time>
      </trkpt>
      <trkpt lat="44.79633" lon="1.97269">
        <ele>399.559</ele>
        <time>2014-10-19T13:54:16.002Z</time>
      </trkpt>
      <trkpt lat="44.79631" lon="1.97256">
        <ele>399.433</ele>
        <time>2014-10-19T13:54:24.401Z</time>
      </trkpt>
      <trkpt lat="44.79623" lon="1.97251">
        <ele>398.213</ele>
        <time>2014-10-19T13:54:33.203Z</time>
      </trkpt>
      <trkpt lat="44.79613" lon="1.97253">
        <ele>397.04</ele>
        <time>2014-10-19T13:54:42.675Z</time>
      </trkpt>
      <trkpt lat="44.79603" lon="1.97252">
        <ele>397.362</ele>
        <time>2014-10-19T13:54:51.236Z</time>
      </trkpt>
      <trkpt lat="44.79594" lon="1.97248">
        <ele>398.686</ele>
        <time>2014-10-19T13:54:58.871Z</time>
      </trkpt>
      <trkpt lat="44.79586" lon="1.97239">
        <ele>399.712</ele>
        <time>2014-10-19T13:55:06.088Z</time>
      </trkpt>
      <trkpt lat="44.79579" lon="1.97228">
        <ele>399.679</ele>
        <time>2014-10-19T13:55:13.771Z</time>
      </trkpt>
      <trkpt lat="44.79574" lon="1.97216">
        <ele>398.728</ele>
        <time>2014-10-19T13:55:21.837Z</time>
      </trkpt>
      <trkpt lat="44.79571" lon="1.97203">
        <ele>397.679</ele>
        <time>2014-10-19T13:55:28.265Z</time>
      </trkpt>
      <trkpt lat="44.79569" lon="1.97188">
        <ele>396.911</ele>
        <time>2014-10-19T13:55:34.763Z</time>
      </trkpt>
      <trkpt lat="44.79568" lon="1.97174">
        <ele>394.976</ele>
        <time>2014-10-19T13:55:41.385Z</time>
      </trkpt>
      <trkpt lat="44.79569" lon="1.97161">
        <ele>391.252</ele>
        <time>2014-10-19T13:55:48.531Z</time>
      </trkpt>
      <trkpt lat="44.79569" lon="1.97146">
        <ele>387.672</ele>
        <time>2014-10-19T13:55:57.161Z</time>
      </trkpt>
      <trkpt lat="44.7957" lon="1.97133">
        <ele>385.396</ele>
        <time>2014-10-19T13:56:04.950Z</time>
      </trkpt>
      <trkpt lat="44.7957" lon="1.9712">
        <ele>383.773</ele>
        <time>2014-10-19T13:56:12.788Z</time>
      </trkpt>
      <trkpt lat="44.79568" lon="1.97107">
        <ele>383.132</ele>
        <time>2014-10-19T13:56:21.606Z</time>
      </trkpt>
      <trkpt lat="44.79566" lon="1.97094">
        <ele>383.869</ele>
        <time>2014-10-19T13:56:30.063Z</time>
      </trkpt>
      <trkpt lat="44.79562" lon="1.97081">
        <ele>385.061</ele>
        <time>2014-10-19T13:56:38.383Z</time>
      </trkpt>
      <trkpt lat="44.79559" lon="1.97068">
        <ele>385.846</ele>
        <time>2014-10-19T13:56:46.741Z</time>
      </trkpt>
      <trkpt lat="44.79556" lon="1.97054">
        <ele>386.153</ele>
        <time>2014-10-19T13:56:55.660Z</time>
      </trkpt>
      <trkpt lat="44.79552" lon="1.97042">
        <ele>385.994</ele>
        <time>2014-10-19T13:57:03.426Z</time>
      </trkpt>
      <trkpt lat="44.79551" lon="1.97027">
        <ele>385.284</ele>
        <time>2014-10-19T13:57:11.639Z</time>
      </trkpt>
      <trkpt lat="44.7955" lon="1.97014">
        <ele>384.252</ele>
        <time>2014-10-19T13:57:19.160Z</time>
      </trkpt>
      <trkpt lat="44.79549" lon="1.97001">
        <ele>382.785</ele>
        <time>2014-10-19T13:57:27.932Z</time>
      </trkpt>
      <trkpt lat="44.79547" lon="1.96989">
        <ele>380.626</ele>
        <time>2014-10-19T13:57:35.774Z</time>
      </trkpt>
      <trkpt lat="44.79545" lon="1.96975">
        <ele>378.514</ele>
        <time>2014-10-19T13:57:42.622Z</time>
      </trkpt>
      <trkpt lat="44.79542" lon="1.96962">
        <ele>377.534</ele>
        <time>2014-10-19T13:57:49.645Z</time>
      </trkpt>
      <trkpt lat="44.7954" lon="1.96948">
        <ele>377.637</ele>
        <time>2014-10-19T13:57:57.537Z</time>
      </trkpt>
      <trkpt lat="44.79541" lon="1.96932">
        <ele>377.299</ele>
        <time>2014-10-19T13:58:05.694Z</time>
      </trkpt>
      <trkpt lat="44.79541" lon="1.96919">
        <ele>374.838</ele>
        <time>2014-10-19T13:58:12.205Z</time>
      </trkpt>
      <trkpt lat="44.79544" lon="1.96906">
        <ele>371.048</ele>
        <time>2014-10-19T13:58:19.120Z</time>
      </trkpt>
      <trkpt lat="44.79548" lon="1.96892">
        <ele>368.4</ele>
        <time>2014-10-19T13:58:26.790Z</time>
      </trkpt>
      <trkpt lat="44.79552" lon="1.9688">
        <ele>367.777</ele>
        <time>2014-10-19T13:58:34.260Z</time>
      </trkpt>
      <trkpt lat="44.79555" lon="1.96867">
        <ele>368.087</ele>
        <time>2014-10-19T13:58:41.795Z</time>
      </trkpt>
      <trkpt lat="44.7956" lon="1.96855">
        <ele>368.219</ele>
        <time>2014-10-19T13:58:49.702Z</time>
      </trkpt>
      <trkpt lat="44.79564" lon="1.96843">
        <ele>368.03</ele>
        <time>2014-10-19T13:58:58.133Z</time>
      </trkpt>
      <trkpt lat="44.79567" lon="1.9683">
        <ele>367.825</ele>
        <time>2014-10-19T13:59:08.850Z</time>
      </trkpt>
      <trkpt lat="44.79567" lon="1.96816">
        <ele>367.748</ele>
        <time>2014-10-19T13:59:19.682Z</time>
      </trkpt>
      <trkpt lat="44.79566" lon="1.96803">
        <ele>367.679</ele>
        <time>2014-10-19T13:59:28.763Z</time>
      </trkpt>
      <trkpt lat="44.79564" lon="1.9679">
        <ele>367.496</ele>
        <time>2014-10-19T13:59:36.152Z</time>
      </trkpt>
      <trkpt lat="44.79564" lon="1.96776">
        <ele>367.261</ele>
        <time>2014-10-19T13:59:43.521Z</time>
      </trkpt>
      <trkpt lat="44.79564" lon="1.96763">
        <ele>367.074</ele>
        <time>2014-10-19T13:59:50.204Z</time>
      </trkpt>
      <trkpt lat="44.79567" lon="1.9675">
        <ele>366.697</ele>
        <time>2014-10-19T13:59:57.242Z</time>
      </trkpt>
      <trkpt lat="44.79569" lon="1.96737">
        <ele>365.969</ele>
        <time>2014-10-19T14:00:04.746Z</time>
      </trkpt>
      <trkpt lat="44.7957" lon="1.96723">
        <ele>364.79</ele>
        <time>2014-10-19T14:00:12.844Z</time>
      </trkpt>
      <trkpt lat="44.79571" lon="1.96711">
        <ele>362.747</ele>
        <time>2014-10-19T14:00:20.159Z</time>
      </trkpt>
      <trkpt lat="44.79574" lon="1.96698">
        <ele>360.139</ele>
        <time>2014-10-19T14:00:27.931Z</time>
      </trkpt>
      <trkpt lat="44.79575" lon="1.96684">
        <ele>358.147</ele>
        <time>2014-10-19T14:00:35.796Z</time>
      </trkpt>
      <trkpt lat="44.79574" lon="1.9667">
        <ele>356.962</ele>
        <time>2014-10-19T14:00:43.735Z</time>
      </trkpt>
      <trkpt lat="44.79571" lon="1.96657">
        <ele>355.909</ele>
        <time>2014-10-19T14:00:51.666Z</time>
      </trkpt>
      <trkpt lat="44.79569" lon="1.96644">
        <ele>354.738</ele>
        <time>2014-10-19T14:00:59.582Z</time>
      </trkpt>
      <trkpt lat="44.79565" lon="1.96631">
        <ele>353.68</ele>
        <time>2014-10-19T14:01:07.075Z</time>
      </trkpt>
      <trkpt lat="44.79561" lon="1.96619">
        <ele>352.893</ele>
        <time>2014-10-19T14:01:14.029Z</time>
      </trkpt>
      <trkpt lat="44.79559" lon="1.96606">
        <ele>352.328</ele>
        <time>2014-10-19T14:01:21.437Z</time>
      </trkpt>
      <trkpt lat="44.79556" lon="1.96591">
        <ele>351.959</ele>
        <time>2014-10-19T14:01:29.968Z</time>
      </trkpt>
      <trkpt lat="44.79553" lon="1.96579">
        <ele>351.835</ele>
        <time>2014-10-19T14:01:36.772Z</time>
      </trkpt>
      <trkpt lat="44.79548" lon="1.96566">
        <ele>352.116</ele>
        <time>2014-10-19T14:01:44.409Z</time>
      </trkpt>
      <trkpt lat="44.79545" lon="1.96554">
        <ele>352.579</ele>
        <time>2014-10-19T14:01:51.273Z</time>
      </trkpt>
      <trkpt lat="44.79542" lon="1.96542">
        <ele>352.471</ele>
        <time>2014-10-19T14:01:57.910Z</time>
      </trkpt>
      <trkpt lat="44.79538" lon="1.96529">
        <ele>351.691</ele>
        <time>2014-10-19T14:02:05.585Z</time>
      </trkpt>
      <trkpt lat="44.79534" lon="1.96516">
        <ele>351.029</ele>
        <time>2014-10-19T14:02:13.534Z</time>
      </trkpt>
      <trkpt lat="44.79531" lon="1.96504">
        <ele>350.897</ele>
        <time>2014-10-19T14:02:20.500Z</time>
      </trkpt>
      <trkpt lat="44.79529" lon="1.96492">
        <ele>351.063</ele>
        <time>2014-10-19T14:02:27.115Z</time>
      </trkpt>
      <trkpt lat="44.79525" lon="1.96479">
        <ele>351.277</ele>
        <time>2014-10-19T14:02:34.217Z</time>
      </trkpt>
      <trkpt lat="44.79521" lon="1.96466">
        <ele>351.686</ele>
        <time>2014-10-19T14:02:41.751Z</time>
      </trkpt>
      <trkpt lat="44.79518" lon="1.96453">
        <ele>352.156</ele>
        <time>2014-10-19T14:02:48.872Z</time>
      </trkpt>
      <trkpt lat="44.79515" lon="1.96441">
        <ele>352.537</ele>
        <time>2014-10-19T14:02:56.136Z</time>
      </trkpt>
      <trkpt lat="44.7951" lon="1.96429">
        <ele>353.132</ele>
        <time>2014-10-19T14:03:03.635Z</time>
      </trkpt>
      <trkpt lat="44.79503" lon="1.96421">
        <ele>353.961</ele>
        <time>2014-10-19T14:03:11.800Z</time>
      </trkpt>
      <trkpt lat="44.79494" lon="1.96429">
        <ele>354.789</ele>
        <time>2014-10-19T14:03:22.116Z</time>
      </trkpt>
      <trkpt lat="44.79486" lon="1.96436">
        <ele>355.598</ele>
        <time>2014-10-19T14:03:30.297Z</time>
      </trkpt>
      <trkpt lat="44.79478" lon="1.96442">
        <ele>356.297</ele>
        <time>2014-10-19T14:03:37.617Z</time>
      </trkpt>
      <trkpt lat="44.79469" lon="1.96443">
        <ele>356.499</ele>
        <time>2014-10-19T14:03:44.985Z</time>
      </trkpt>
      <trkpt lat="44.79469" lon="1.96443">
        <ele>356.14</ele>
        <time>2014-10-19T14:03:49.993Z</time>
      </trkpt>
      <trkpt lat="44.79469" lon="1.96443">
        <ele>355.77</ele>
        <time>2014-10-19T14:10:32.613Z</time>
      </trkpt>
      <trkpt lat="44.79453" lon="1.96445">
        <ele>355.743</ele>
        <time>2014-10-19T14:11:43.016Z</time>
      </trkpt>
      <trkpt lat="44.79444" lon="1.96449">
        <ele>356.343</ele>
        <time>2014-10-19T14:11:53.266Z</time>
      </trkpt>
      <trkpt lat="44.79436" lon="1.96457">
        <ele>358.176</ele>
        <time>2014-10-19T14:12:03.915Z</time>
      </trkpt>
      <trkpt lat="44.79428" lon="1.96462">
        <ele>360.964</ele>
        <time>2014-10-19T14:12:13.857Z</time>
      </trkpt>
      <trkpt lat="44.79419" lon="1.96467">
        <ele>364.006</ele>
        <time>2014-10-19T14:12:21.685Z</time>
      </trkpt>
      <trkpt lat="44.7941" lon="1.96472">
        <ele>366.709</ele>
        <time>2014-10-19T14:12:29.132Z</time>
      </trkpt>
      <trkpt lat="44.79401" lon="1.96476">
        <ele>368.377</ele>
        <time>2014-10-19T14:12:35.956Z</time>
      </trkpt>
      <trkpt lat="44.79392" lon="1.96477">
        <ele>368.637</ele>
        <time>2014-10-19T14:12:42.990Z</time>
      </trkpt>
      <trkpt lat="44.79383" lon="1.96477">
        <ele>368.106</ele>
        <time>2014-10-19T14:12:50.752Z</time>
      </trkpt>
      <trkpt lat="44.79374" lon="1.96481">
        <ele>367.67</ele>
        <time>2014-10-19T14:12:58.528Z</time>
      </trkpt>
      <trkpt lat="44.79364" lon="1.96482">
        <ele>367.622</ele>
        <time>2014-10-19T14:13:05.994Z</time>
      </trkpt>
      <trkpt lat="44.79364" lon="1.96482">
        <ele>367.705</ele>
        <time>2014-10-19T14:13:14.994Z</time>
      </trkpt>
      <trkpt lat="44.79364" lon="1.96482">
        <ele>367.695</ele>
        <time>2014-10-19T14:13:15.094Z</time>
      </trkpt>
      <trkpt lat="44.79351" lon="1.96481">
        <ele>367.526</ele>
        <time>2014-10-19T14:14:02.337Z</time>
      </trkpt>
      <trkpt lat="44.79341" lon="1.9648">
        <ele>367.763</ele>
        <time>2014-10-19T14:14:09.948Z</time>
      </trkpt>
      <trkpt lat="44.79331" lon="1.9648">
        <ele>368.817</ele>
        <time>2014-10-19T14:14:17.951Z</time>
      </trkpt>
      <trkpt lat="44.79321" lon="1.96478">
        <ele>370.007</ele>
        <time>2014-10-19T14:14:25.993Z</time>
      </trkpt>
      <trkpt lat="44.79312" lon="1.96478">
        <ele>370.409</ele>
        <time>2014-10-19T14:14:33.513Z</time>
      </trkpt>
      <trkpt lat="44.79303" lon="1.96477">
        <ele>369.251</ele>
        <time>2014-10-19T14:14:40.651Z</time>
      </trkpt>
      <trkpt lat="44.79294" lon="1.96475">
        <ele>366.641</ele>
        <time>2014-10-19T14:14:48.426Z</time>
      </trkpt>
      <trkpt lat="44.79284" lon="1.96473">
        <ele>364.101</ele>
        <time>2014-10-19T14:14:56.731Z</time>
      </trkpt>
      <trkpt lat="44.79275" lon="1.96474">
        <ele>363.102</ele>
        <time>2014-10-19T14:15:04.664Z</time>
      </trkpt>
      <trkpt lat="44.79266" lon="1.96471">
        <ele>363.649</ele>
        <time>2014-10-19T14:15:12.896Z</time>
      </trkpt>
      <trkpt lat="44.79256" lon="1.96471">
        <ele>364.787</ele>
        <time>2014-10-19T14:15:20.201Z</time>
      </trkpt>
      <trkpt lat="44.79246" lon="1.96471">
        <ele>365.725</ele>
        <time>2014-10-19T14:15:27.448Z</time>
      </trkpt>
      <trkpt lat="44.79237" lon="1.96468">
        <ele>366.265</ele>
        <time>2014-10-19T14:15:35.580Z</time>
      </trkpt>
      <trkpt lat="44.79228" lon="1.96463">
        <ele>366.437</ele>
        <time>2014-10-19T14:15:43.314Z</time>
      </trkpt>
      <trkpt lat="44.79219" lon="1.9646">
        <ele>366.526</ele>
        <time>2014-10-19T14:15:50.330Z</time>
      </trkpt>
      <trkpt lat="44.7921" lon="1.96455">
        <ele>366.657</ele>
        <time>2014-10-19T14:15:57.743Z</time>
      </trkpt>
      <trkpt lat="44.79202" lon="1.96449">
        <ele>366.52</ele>
        <time>2014-10-19T14:16:05.294Z</time>
      </trkpt>
      <trkpt lat="44.79192" lon="1.96442">
        <ele>365.996</ele>
        <time>2014-10-19T14:16:13.896Z</time>
      </trkpt>
      <trkpt lat="44.79183" lon="1.96437">
        <ele>366.096</ele>
        <time>2014-10-19T14:16:21.263Z</time>
      </trkpt>
      <trkpt lat="44.79176" lon="1.96426">
        <ele>367.546</ele>
        <time>2014-10-19T14:16:28.608Z</time>
      </trkpt>
      <trkpt lat="44.79172" lon="1.96413">
        <ele>368.572</ele>
        <time>2014-10-19T14:16:35.747Z</time>
      </trkpt>
      <trkpt lat="44.79167" lon="1.96402">
        <ele>367.637</ele>
        <time>2014-10-19T14:16:42.838Z</time>
      </trkpt>
      <trkpt lat="44.79163" lon="1.9639">
        <ele>365.943</ele>
        <time>2014-10-19T14:16:50.101Z</time>
      </trkpt>
      <trkpt lat="44.79159" lon="1.96377">
        <ele>365.105</ele>
        <time>2014-10-19T14:16:57.308Z</time>
      </trkpt>
      <trkpt lat="44.79154" lon="1.96365">
        <ele>365.289</ele>
        <time>2014-10-19T14:17:04.220Z</time>
      </trkpt>
      <trkpt lat="44.79153" lon="1.96351">
        <ele>365.871</ele>
        <time>2014-10-19T14:17:11.198Z</time>
      </trkpt>
      <trkpt lat="44.79153" lon="1.96339">
        <ele>366.277</ele>
        <time>2014-10-19T14:17:18.422Z</time>
      </trkpt>
      <trkpt lat="44.79152" lon="1.96326">
        <ele>366.711</ele>
        <time>2014-10-19T14:17:26.438Z</time>
      </trkpt>
      <trkpt lat="44.79152" lon="1.96313">
        <ele>367.54</ele>
        <time>2014-10-19T14:17:35.329Z</time>
      </trkpt>
      <trkpt lat="44.79152" lon="1.963">
        <ele>368.703</ele>
        <time>2014-10-19T14:17:44.123Z</time>
      </trkpt>
      <trkpt lat="44.79148" lon="1.96287">
        <ele>370.535</ele>
        <time>2014-10-19T14:17:53.293Z</time>
      </trkpt>
      <trkpt lat="44.7914" lon="1.96281">
        <ele>373.162</ele>
        <time>2014-10-19T14:18:01.189Z</time>
      </trkpt>
      <trkpt lat="44.79131" lon="1.96274">
        <ele>375.366</ele>
        <time>2014-10-19T14:18:08.953Z</time>
      </trkpt>
      <trkpt lat="44.79122" lon="1.9627">
        <ele>375.748</ele>
        <time>2014-10-19T14:18:17.445Z</time>
      </trkpt>
      <trkpt lat="44.79113" lon="1.96266">
        <ele>374.472</ele>
        <time>2014-10-19T14:18:25.453Z</time>
      </trkpt>
      <trkpt lat="44.79105" lon="1.96263">
        <ele>373.336</ele>
        <time>2014-10-19T14:18:33.472Z</time>
      </trkpt>
      <trkpt lat="44.79096" lon="1.9626">
        <ele>373.795</ele>
        <time>2014-10-19T14:18:42.239Z</time>
      </trkpt>
      <trkpt lat="44.79086" lon="1.9626">
        <ele>375.258</ele>
        <time>2014-10-19T14:18:50.333Z</time>
      </trkpt>
      <trkpt lat="44.79077" lon="1.96261">
        <ele>376.443</ele>
        <time>2014-10-19T14:18:57.577Z</time>
      </trkpt>
      <trkpt lat="44.79067" lon="1.96264">
        <ele>376.92</ele>
        <time>2014-10-19T14:19:05.031Z</time>
      </trkpt>
      <trkpt lat="44.79058" lon="1.96268">
        <ele>377.212</ele>
        <time>2014-10-19T14:19:12.555Z</time>
      </trkpt>
      <trkpt lat="44.79049" lon="1.9627">
        <ele>377.796</ele>
        <time>2014-10-19T14:19:20.073Z</time>
      </trkpt>
      <trkpt lat="44.7904" lon="1.96273">
        <ele>378.268</ele>
        <time>2014-10-19T14:19:26.994Z</time>
      </trkpt>
      <trkpt lat="44.7904" lon="1.96273">
        <ele>378.171</ele>
        <time>2014-10-19T14:19:41.993Z</time>
      </trkpt>
      <trkpt lat="44.7904" lon="1.96273">
        <ele>377.836</ele>
        <time>2014-10-19T14:19:42.093Z</time>
      </trkpt>
      <trkpt lat="44.79026" lon="1.96274">
        <ele>377.674</ele>
        <time>2014-10-19T14:20:25.512Z</time>
      </trkpt>
      <trkpt lat="44.79021" lon="1.96286">
        <ele>377.686</ele>
        <time>2014-10-19T14:20:34.013Z</time>
      </trkpt>
      <trkpt lat="44.79016" lon="1.96298">
        <ele>377.504</ele>
        <time>2014-10-19T14:20:41.783Z</time>
      </trkpt>
      <trkpt lat="44.7901" lon="1.96309">
        <ele>377.434</ele>
        <time>2014-10-19T14:20:48.770Z</time>
      </trkpt>
      <trkpt lat="44.79003" lon="1.96319">
        <ele>377.727</ele>
        <time>2014-10-19T14:20:55.374Z</time>
      </trkpt>
      <trkpt lat="44.78996" lon="1.96327">
        <ele>378.258</ele>
        <time>2014-10-19T14:21:02.322Z</time>
      </trkpt>
      <trkpt lat="44.78988" lon="1.96334">
        <ele>378.671</ele>
        <time>2014-10-19T14:21:09.513Z</time>
      </trkpt>
      <trkpt lat="44.78981" lon="1.96343">
        <ele>378.602</ele>
        <time>2014-10-19T14:21:16.901Z</time>
      </trkpt>
      <trkpt lat="44.78975" lon="1.96352">
        <ele>377.899</ele>
        <time>2014-10-19T14:21:24.143Z</time>
      </trkpt>
      <trkpt lat="44.78968" lon="1.96362">
        <ele>376.927</ele>
        <time>2014-10-19T14:21:32.067Z</time>
      </trkpt>
      <trkpt lat="44.78962" lon="1.96372">
        <ele>375.695</ele>
        <time>2014-10-19T14:21:39.789Z</time>
      </trkpt>
      <trkpt lat="44.78955" lon="1.96382">
        <ele>373.977</ele>
        <time>2014-10-19T14:21:47.050Z</time>
      </trkpt>
      <trkpt lat="44.78949" lon="1.96392">
        <ele>372.46</ele>
        <time>2014-10-19T14:21:54.374Z</time>
      </trkpt>
      <trkpt lat="44.78942" lon="1.96404">
        <ele>371.733</ele>
        <time>2014-10-19T14:22:02.762Z</time>
      </trkpt>
      <trkpt lat="44.78935" lon="1.96414">
        <ele>371.459</ele>
        <time>2014-10-19T14:22:10.556Z</time>
      </trkpt>
      <trkpt lat="44.7893" lon="1.96426">
        <ele>371.207</ele>
        <time>2014-10-19T14:22:17.569Z</time>
      </trkpt>
      <trkpt lat="44.78926" lon="1.96439">
        <ele>370.647</ele>
        <time>2014-10-19T14:22:24.371Z</time>
      </trkpt>
      <trkpt lat="44.7892" lon="1.9645">
        <ele>369.831</ele>
        <time>2014-10-19T14:22:31.587Z</time>
      </trkpt>
      <trkpt lat="44.78914" lon="1.96461">
        <ele>368.633</ele>
        <time>2014-10-19T14:22:38.709Z</time>
      </trkpt>
      <trkpt lat="44.78908" lon="1.96472">
        <ele>366.902</ele>
        <time>2014-10-19T14:22:46.425Z</time>
      </trkpt>
      <trkpt lat="44.78902" lon="1.96484">
        <ele>365.315</ele>
        <time>2014-10-19T14:22:53.934Z</time>
      </trkpt>
      <trkpt lat="44.78896" lon="1.96494">
        <ele>364.974</ele>
        <time>2014-10-19T14:23:01.124Z</time>
      </trkpt>
      <trkpt lat="44.7889" lon="1.96504">
        <ele>365.506</ele>
        <time>2014-10-19T14:23:08.229Z</time>
      </trkpt>
      <trkpt lat="44.78884" lon="1.96516">
        <ele>366.094</ele>
        <time>2014-10-19T14:23:15.900Z</time>
      </trkpt>
      <trkpt lat="44.78875" lon="1.96525">
        <ele>366.901</ele>
        <time>2014-10-19T14:23:23.382Z</time>
      </trkpt>
      <trkpt lat="44.78867" lon="1.96533">
        <ele>367.976</ele>
        <time>2014-10-19T14:23:30.275Z</time>
      </trkpt>
      <trkpt lat="44.7886" lon="1.96542">
        <ele>368.637</ele>
        <time>2014-10-19T14:23:37.495Z</time>
      </trkpt>
      <trkpt lat="44.78852" lon="1.96551">
        <ele>368.737</ele>
        <time>2014-10-19T14:23:45.207Z</time>
      </trkpt>
      <trkpt lat="44.78845" lon="1.96559">
        <ele>368.374</ele>
        <time>2014-10-19T14:23:51.866Z</time>
      </trkpt>
      <trkpt lat="44.78837" lon="1.96567">
        <ele>367.813</ele>
        <time>2014-10-19T14:23:59.260Z</time>
      </trkpt>
      <trkpt lat="44.7883" lon="1.96576">
        <ele>367.287</ele>
        <time>2014-10-19T14:24:06.674Z</time>
      </trkpt>
      <trkpt lat="44.78823" lon="1.96584">
        <ele>366.862</ele>
        <time>2014-10-19T14:24:14.486Z</time>
      </trkpt>
      <trkpt lat="44.78817" lon="1.96595">
        <ele>366.567</ele>
        <time>2014-10-19T14:24:22.745Z</time>
      </trkpt>
      <trkpt lat="44.7881" lon="1.96604">
        <ele>366.386</ele>
        <time>2014-10-19T14:24:30.695Z</time>
      </trkpt>
      <trkpt lat="44.78803" lon="1.96615">
        <ele>366.196</ele>
        <time>2014-10-19T14:24:39.236Z</time>
      </trkpt>
      <trkpt lat="44.78797" lon="1.96626">
        <ele>365.762</ele>
        <time>2014-10-19T14:24:46.807Z</time>
      </trkpt>
      <trkpt lat="44.78791" lon="1.96637">
        <ele>364.974</ele>
        <time>2014-10-19T14:24:53.797Z</time>
      </trkpt>
      <trkpt lat="44.78784" lon="1.96647">
        <ele>364.152</ele>
        <time>2014-10-19T14:25:00.577Z</time>
      </trkpt>
      <trkpt lat="44.78778" lon="1.96657">
        <ele>363.675</ele>
        <time>2014-10-19T14:25:07.315Z</time>
      </trkpt>
      <trkpt lat="44.78773" lon="1.96667">
        <ele>363.459</ele>
        <time>2014-10-19T14:25:14.246Z</time>
      </trkpt>
      <trkpt lat="44.78766" lon="1.96679">
        <ele>363.215</ele>
        <time>2014-10-19T14:25:22.398Z</time>
      </trkpt>
      <trkpt lat="44.78761" lon="1.9669">
        <ele>362.762</ele>
        <time>2014-10-19T14:25:29.709Z</time>
      </trkpt>
      <trkpt lat="44.78756" lon="1.96701">
        <ele>362.035</ele>
        <time>2014-10-19T14:25:37.236Z</time>
      </trkpt>
      <trkpt lat="44.7875" lon="1.96711">
        <ele>361.232</ele>
        <time>2014-10-19T14:25:45.204Z</time>
      </trkpt>
      <trkpt lat="44.78745" lon="1.96724">
        <ele>360.458</ele>
        <time>2014-10-19T14:25:53.584Z</time>
      </trkpt>
      <trkpt lat="44.78741" lon="1.96736">
        <ele>359.984</ele>
        <time>2014-10-19T14:26:01.051Z</time>
      </trkpt>
      <trkpt lat="44.78735" lon="1.96747">
        <ele>359.827</ele>
        <time>2014-10-19T14:26:09.030Z</time>
      </trkpt>
      <trkpt lat="44.7873" lon="1.96757">
        <ele>359.262</ele>
        <time>2014-10-19T14:26:16.299Z</time>
      </trkpt>
      <trkpt lat="44.78724" lon="1.96769">
        <ele>358.157</ele>
        <time>2014-10-19T14:26:23.765Z</time>
      </trkpt>
      <trkpt lat="44.78717" lon="1.96777">
        <ele>357.427</ele>
        <time>2014-10-19T14:26:31.269Z</time>
      </trkpt>
      <trkpt lat="44.78711" lon="1.96788">
        <ele>357.692</ele>
        <time>2014-10-19T14:26:38.941Z</time>
      </trkpt>
      <trkpt lat="44.78703" lon="1.96797">
        <ele>358.756</ele>
        <time>2014-10-19T14:26:46.327Z</time>
      </trkpt>
      <trkpt lat="44.78697" lon="1.96808">
        <ele>359.251</ele>
        <time>2014-10-19T14:26:54.088Z</time>
      </trkpt>
      <trkpt lat="44.78691" lon="1.96819">
        <ele>358.345</ele>
        <time>2014-10-19T14:27:02.405Z</time>
      </trkpt>
      <trkpt lat="44.78685" lon="1.9683">
        <ele>356.997</ele>
        <time>2014-10-19T14:27:10.217Z</time>
      </trkpt>
      <trkpt lat="44.78679" lon="1.96839">
        <ele>356.105</ele>
        <time>2014-10-19T14:27:17.607Z</time>
      </trkpt>
      <trkpt lat="44.78674" lon="1.9685">
        <ele>355.564</ele>
        <time>2014-10-19T14:27:25.022Z</time>
      </trkpt>
      <trkpt lat="44.78669" lon="1.96861">
        <ele>355.55</ele>
        <time>2014-10-19T14:27:32.657Z</time>
      </trkpt>
      <trkpt lat="44.78664" lon="1.96871">
        <ele>356.662</ele>
        <time>2014-10-19T14:27:39.686Z</time>
      </trkpt>
      <trkpt lat="44.78656" lon="1.96881">
        <ele>358.629</ele>
        <time>2014-10-19T14:27:47.048Z</time>
      </trkpt>
      <trkpt lat="44.78651" lon="1.96891">
        <ele>359.698</ele>
        <time>2014-10-19T14:27:53.771Z</time>
      </trkpt>
      <trkpt lat="44.78646" lon="1.96902">
        <ele>358.522</ele>
        <time>2014-10-19T14:28:00.868Z</time>
      </trkpt>
      <trkpt lat="44.7864" lon="1.96913">
        <ele>356.414</ele>
        <time>2014-10-19T14:28:08.711Z</time>
      </trkpt>
      <trkpt lat="44.78635" lon="1.96924">
        <ele>355.182</ele>
        <time>2014-10-19T14:28:15.516Z</time>
      </trkpt>
      <trkpt lat="44.78631" lon="1.96936">
        <ele>354.733</ele>
        <time>2014-10-19T14:28:22.685Z</time>
      </trkpt>
      <trkpt lat="44.78628" lon="1.96948">
        <ele>354.387</ele>
        <time>2014-10-19T14:28:30.304Z</time>
      </trkpt>
      <trkpt lat="44.78622" lon="1.96959">
        <ele>353.745</ele>
        <time>2014-10-19T14:28:37.591Z</time>
      </trkpt>
      <trkpt lat="44.78617" lon="1.9697">
        <ele>352.566</ele>
        <time>2014-10-19T14:28:44.431Z</time>
      </trkpt>
      <trkpt lat="44.78613" lon="1.96983">
        <ele>351.352</ele>
        <time>2014-10-19T14:28:52.117Z</time>
      </trkpt>
      <trkpt lat="44.78611" lon="1.96997">
        <ele>350.646</ele>
        <time>2014-10-19T14:29:00.128Z</time>
      </trkpt>
      <trkpt lat="44.78614" lon="1.9701">
        <ele>350.593</ele>
        <time>2014-10-19T14:29:08.519Z</time>
      </trkpt>
      <trkpt lat="44.78618" lon="1.97023">
        <ele>351.05</ele>
        <time>2014-10-19T14:29:17.710Z</time>
      </trkpt>
      <trkpt lat="44.78621" lon="1.97036">
        <ele>351.01</ele>
        <time>2014-10-19T14:29:24.965Z</time>
      </trkpt>
      <trkpt lat="44.78621" lon="1.9705">
        <ele>349.816</ele>
        <time>2014-10-19T14:29:31.520Z</time>
      </trkpt>
      <trkpt lat="44.7862" lon="1.97062">
        <ele>348.451</ele>
        <time>2014-10-19T14:29:37.985Z</time>
      </trkpt>
      <trkpt lat="44.78616" lon="1.97075">
        <ele>347.913</ele>
        <time>2014-10-19T14:29:45.649Z</time>
      </trkpt>
      <trkpt lat="44.78609" lon="1.97086">
        <ele>347.809</ele>
        <time>2014-10-19T14:29:55.444Z</time>
      </trkpt>
      <trkpt lat="44.78603" lon="1.97095">
        <ele>346.294</ele>
        <time>2014-10-19T14:30:03.056Z</time>
      </trkpt>
      <trkpt lat="44.78596" lon="1.97104">
        <ele>342.65</ele>
        <time>2014-10-19T14:30:09.718Z</time>
      </trkpt>
      <trkpt lat="44.78592" lon="1.97116">
        <ele>339.384</ele>
        <time>2014-10-19T14:30:17.143Z</time>
      </trkpt>
      <trkpt lat="44.78587" lon="1.97127">
        <ele>339.508</ele>
        <time>2014-10-19T14:30:25.062Z</time>
      </trkpt>
      <trkpt lat="44.78579" lon="1.97138">
        <ele>342.61</ele>
        <time>2014-10-19T14:30:34.240Z</time>
      </trkpt>
      <trkpt lat="44.78573" lon="1.97147">
        <ele>345.809</ele>
        <time>2014-10-19T14:30:40.990Z</time>
      </trkpt>
      <trkpt lat="44.78573" lon="1.97147">
        <ele>347.066</ele>
        <time>2014-10-19T14:30:45.993Z</time>
      </trkpt>
      <trkpt lat="44.78573" lon="1.97147">
        <ele>346.895</ele>
        <time>2014-10-19T14:30:46.093Z</time>
      </trkpt>
      <trkpt lat="44.78557" lon="1.97154">
        <ele>346.378</ele>
        <time>2014-10-19T14:32:10.102Z</time>
      </trkpt>
      <trkpt lat="44.78549" lon="1.97162">
        <ele>346.063</ele>
        <time>2014-10-19T14:32:18.597Z</time>
      </trkpt>
      <trkpt lat="44.7854" lon="1.97166">
        <ele>347.098</ele>
        <time>2014-10-19T14:32:25.637Z</time>
      </trkpt>
      <trkpt lat="44.78532" lon="1.97172">
        <ele>349.949</ele>
        <time>2014-10-19T14:32:32.765Z</time>
      </trkpt>
      <trkpt lat="44.78524" lon="1.97179">
        <ele>352.594</ele>
        <time>2014-10-19T14:32:39.891Z</time>
      </trkpt>
      <trkpt lat="44.78514" lon="1.97184">
        <ele>353.17</ele>
        <time>2014-10-19T14:32:47.514Z</time>
      </trkpt>
      <trkpt lat="44.78508" lon="1.97193">
        <ele>352.174</ele>
        <time>2014-10-19T14:32:54.560Z</time>
      </trkpt>
      <trkpt lat="44.78501" lon="1.97203">
        <ele>350.994</ele>
        <time>2014-10-19T14:33:02.341Z</time>
      </trkpt>
      <trkpt lat="44.78497" lon="1.97216">
        <ele>350.39</ele>
        <time>2014-10-19T14:33:10.267Z</time>
      </trkpt>
      <trkpt lat="44.78492" lon="1.97228">
        <ele>349.889</ele>
        <time>2014-10-19T14:33:16.819Z</time>
      </trkpt>
      <trkpt lat="44.78487" lon="1.97241">
        <ele>348.975</ele>
        <time>2014-10-19T14:33:23.548Z</time>
      </trkpt>
      <trkpt lat="44.78482" lon="1.97254">
        <ele>348.557</ele>
        <time>2014-10-19T14:33:30.867Z</time>
      </trkpt>
      <trkpt lat="44.7848" lon="1.97267">
        <ele>349.447</ele>
        <time>2014-10-19T14:33:38.416Z</time>
      </trkpt>
      <trkpt lat="44.78477" lon="1.97279">
        <ele>350.417</ele>
        <time>2014-10-19T14:33:45.830Z</time>
      </trkpt>
      <trkpt lat="44.78471" lon="1.97291">
        <ele>350.159</ele>
        <time>2014-10-19T14:33:54.153Z</time>
      </trkpt>
      <trkpt lat="44.78464" lon="1.97301">
        <ele>349.252</ele>
        <time>2014-10-19T14:34:01.622Z</time>
      </trkpt>
      <trkpt lat="44.78459" lon="1.97312">
        <ele>348.846</ele>
        <time>2014-10-19T14:34:09.457Z</time>
      </trkpt>
      <trkpt lat="44.78453" lon="1.97323">
        <ele>349.845</ele>
        <time>2014-10-19T14:34:17.373Z</time>
      </trkpt>
      <trkpt lat="44.78448" lon="1.97335">
        <ele>352.185</ele>
        <time>2014-10-19T14:34:25.228Z</time>
      </trkpt>
      <trkpt lat="44.78443" lon="1.97346">
        <ele>354.406</ele>
        <time>2014-10-19T14:34:31.663Z</time>
      </trkpt>
      <trkpt lat="44.78436" lon="1.97355">
        <ele>355.3</ele>
        <time>2014-10-19T14:34:38.042Z</time>
      </trkpt>
      <trkpt lat="44.78428" lon="1.97365">
        <ele>354.913</ele>
        <time>2014-10-19T14:34:45.508Z</time>
      </trkpt>
      <trkpt lat="44.78421" lon="1.97373">
        <ele>353.836</ele>
        <time>2014-10-19T14:34:52.379Z</time>
      </trkpt>
      <trkpt lat="44.78412" lon="1.97379">
        <ele>352.9</ele>
        <time>2014-10-19T14:35:00.268Z</time>
      </trkpt>
      <trkpt lat="44.78403" lon="1.97388">
        <ele>352.64</ele>
        <time>2014-10-19T14:35:08.306Z</time>
      </trkpt>
      <trkpt lat="44.78399" lon="1.97399">
        <ele>353.076</ele>
        <time>2014-10-19T14:35:15.964Z</time>
      </trkpt>
      <trkpt lat="44.78396" lon="1.97411">
        <ele>353.806</ele>
        <time>2014-10-19T14:35:23.808Z</time>
      </trkpt>
      <trkpt lat="44.78393" lon="1.97424">
        <ele>354.653</ele>
        <time>2014-10-19T14:35:31.333Z</time>
      </trkpt>
      <trkpt lat="44.78394" lon="1.97437">
        <ele>355.677</ele>
        <time>2014-10-19T14:35:39.335Z</time>
      </trkpt>
      <trkpt lat="44.78395" lon="1.97451">
        <ele>356.179</ele>
        <time>2014-10-19T14:35:47.597Z</time>
      </trkpt>
      <trkpt lat="44.78396" lon="1.97464">
        <ele>355.509</ele>
        <time>2014-10-19T14:35:54.994Z</time>
      </trkpt>
      <trkpt lat="44.78396" lon="1.97464">
        <ele>354.421</ele>
        <time>2014-10-19T14:36:02.992Z</time>
      </trkpt>
      <trkpt lat="44.78396" lon="1.97464">
        <ele>353.86</ele>
        <time>2014-10-19T14:38:34.253Z</time>
      </trkpt>
      <trkpt lat="44.784" lon="1.9748">
        <ele>353.958</ele>
        <time>2014-10-19T14:39:35.072Z</time>
      </trkpt>
      <trkpt lat="44.78391" lon="1.97477">
        <ele>354.734</ele>
        <time>2014-10-19T14:39:48.295Z</time>
      </trkpt>
      <trkpt lat="44.78385" lon="1.97467">
        <ele>355.975</ele>
        <time>2014-10-19T14:39:56.679Z</time>
      </trkpt>
      <trkpt lat="44.78376" lon="1.97461">
        <ele>357.257</ele>
        <time>2014-10-19T14:40:05.097Z</time>
      </trkpt>
      <trkpt lat="44.78367" lon="1.97455">
        <ele>358.738</ele>
        <time>2014-10-19T14:40:14.137Z</time>
      </trkpt>
      <trkpt lat="44.7836" lon="1.97446">
        <ele>360.55</ele>
        <time>2014-10-19T14:40:23.764Z</time>
      </trkpt>
      <trkpt lat="44.78352" lon="1.97438">
        <ele>362.313</ele>
        <time>2014-10-19T14:40:33.027Z</time>
      </trkpt>
      <trkpt lat="44.78345" lon="1.97428">
        <ele>363.673</ele>
        <time>2014-10-19T14:40:42.530Z</time>
      </trkpt>
      <trkpt lat="44.78338" lon="1.97421">
        <ele>364.695</ele>
        <time>2014-10-19T14:40:50.614Z</time>
      </trkpt>
      <trkpt lat="44.78332" lon="1.9741">
        <ele>365.663</ele>
        <time>2014-10-19T14:41:00.265Z</time>
      </trkpt>
      <trkpt lat="44.78325" lon="1.97402">
        <ele>367.147</ele>
        <time>2014-10-19T14:41:10.899Z</time>
      </trkpt>
      <trkpt lat="44.78317" lon="1.97396">
        <ele>369.239</ele>
        <time>2014-10-19T14:41:22.764Z</time>
      </trkpt>
      <trkpt lat="44.78307" lon="1.97398">
        <ele>371.539</ele>
        <time>2014-10-19T14:41:35.075Z</time>
      </trkpt>
      <trkpt lat="44.78304" lon="1.97411">
        <ele>373.624</ele>
        <time>2014-10-19T14:41:47.013Z</time>
      </trkpt>
      <trkpt lat="44.78299" lon="1.97422">
        <ele>375.604</ele>
        <time>2014-10-19T14:41:58.315Z</time>
      </trkpt>
      <trkpt lat="44.78294" lon="1.97433">
        <ele>377.616</ele>
        <time>2014-10-19T14:42:07.474Z</time>
      </trkpt>
      <trkpt lat="44.78291" lon="1.97445">
        <ele>379.288</ele>
        <time>2014-10-19T14:42:15.726Z</time>
      </trkpt>
      <trkpt lat="44.78287" lon="1.97457">
        <ele>380.069</ele>
        <time>2014-10-19T14:42:24.094Z</time>
      </trkpt>
      <trkpt lat="44.7828" lon="1.97466">
        <ele>380.23</ele>
        <time>2014-10-19T14:42:31.403Z</time>
      </trkpt>
      <trkpt lat="44.78271" lon="1.97476">
        <ele>380.161</ele>
        <time>2014-10-19T14:42:38.834Z</time>
      </trkpt>
      <trkpt lat="44.78263" lon="1.97481">
        <ele>380.064</ele>
        <time>2014-10-19T14:42:46.750Z</time>
      </trkpt>
      <trkpt lat="44.78254" lon="1.97475">
        <ele>380.678</ele>
        <time>2014-10-19T14:42:56.013Z</time>
      </trkpt>
      <trkpt lat="44.78254" lon="1.9746">
        <ele>382.413</ele>
        <time>2014-10-19T14:43:06.883Z</time>
      </trkpt>
      <trkpt lat="44.78257" lon="1.97447">
        <ele>384.458</ele>
        <time>2014-10-19T14:43:16.083Z</time>
      </trkpt>
      <trkpt lat="44.78259" lon="1.97433">
        <ele>386.025</ele>
        <time>2014-10-19T14:43:25.007Z</time>
      </trkpt>
      <trkpt lat="44.7826" lon="1.97419">
        <ele>387.112</ele>
        <time>2014-10-19T14:43:34.074Z</time>
      </trkpt>
      <trkpt lat="44.78258" lon="1.97406">
        <ele>388.052</ele>
        <time>2014-10-19T14:43:43.635Z</time>
      </trkpt>
      <trkpt lat="44.78252" lon="1.97395">
        <ele>389.048</ele>
        <time>2014-10-19T14:43:56.663Z</time>
      </trkpt>
      <trkpt lat="44.78241" lon="1.97385">
        <ele>389.786</ele>
        <time>2014-10-19T14:44:13.846Z</time>
      </trkpt>
      <trkpt lat="44.78233" lon="1.97377">
        <ele>390.735</ele>
        <time>2014-10-19T14:44:24.286Z</time>
      </trkpt>
      <trkpt lat="44.78224" lon="1.97373">
        <ele>392.528</ele>
        <time>2014-10-19T14:44:34.750Z</time>
      </trkpt>
      <trkpt lat="44.78215" lon="1.97369">
        <ele>394.35</ele>
        <time>2014-10-19T14:44:44.785Z</time>
      </trkpt>
      <trkpt lat="44.78206" lon="1.97369">
        <ele>396.302</ele>
        <time>2014-10-19T14:44:55.512Z</time>
      </trkpt>
      <trkpt lat="44.78196" lon="1.97369">
        <ele>399.207</ele>
        <time>2014-10-19T14:45:07.923Z</time>
      </trkpt>
      <trkpt lat="44.78191" lon="1.9738">
        <ele>402.191</ele>
        <time>2014-10-19T14:45:20.878Z</time>
      </trkpt>
      <trkpt lat="44.78187" lon="1.97392">
        <ele>404.717</ele>
        <time>2014-10-19T14:45:32.583Z</time>
      </trkpt>
      <trkpt lat="44.78181" lon="1.97402">
        <ele>407.356</ele>
        <time>2014-10-19T14:45:43.365Z</time>
      </trkpt>
      <trkpt lat="44.78174" lon="1.97412">
        <ele>409.878</ele>
        <time>2014-10-19T14:45:53.957Z</time>
      </trkpt>
      <trkpt lat="44.78165" lon="1.97415">
        <ele>411.824</ele>
        <time>2014-10-19T14:46:04.726Z</time>
      </trkpt>
      <trkpt lat="44.78156" lon="1.97419">
        <ele>414.065</ele>
        <time>2014-10-19T14:46:14.928Z</time>
      </trkpt>
      <trkpt lat="44.78146" lon="1.97422">
        <ele>417.488</ele>
        <time>2014-10-19T14:46:24.706Z</time>
      </trkpt>
      <trkpt lat="44.78137" lon="1.97426">
        <ele>420.928</ele>
        <time>2014-10-19T14:46:34.960Z</time>
      </trkpt>
      <trkpt lat="44.78128" lon="1.97427">
        <ele>422.776</ele>
        <time>2014-10-19T14:46:45.794Z</time>
      </trkpt>
      <trkpt lat="44.78119" lon="1.9743">
        <ele>423.143</ele>
        <time>2014-10-19T14:46:54.565Z</time>
      </trkpt>
      <trkpt lat="44.7811" lon="1.97424">
        <ele>423.05</ele>
        <time>2014-10-19T14:47:02.032Z</time>
      </trkpt>
      <trkpt lat="44.78102" lon="1.97418">
        <ele>423.211</ele>
        <time>2014-10-19T14:47:09.904Z</time>
      </trkpt>
      <trkpt lat="44.78095" lon="1.97409">
        <ele>423.246</ele>
        <time>2014-10-19T14:47:20.065Z</time>
      </trkpt>
      <trkpt lat="44.78086" lon="1.97407">
        <ele>422.682</ele>
        <time>2014-10-19T14:47:31.800Z</time>
      </trkpt>
      <trkpt lat="44.78076" lon="1.97408">
        <ele>422.566</ele>
        <time>2014-10-19T14:47:43.285Z</time>
      </trkpt>
      <trkpt lat="44.78066" lon="1.97408">
        <ele>424.149</ele>
        <time>2014-10-19T14:47:53.302Z</time>
      </trkpt>
      <trkpt lat="44.78057" lon="1.9741">
        <ele>426.81</ele>
        <time>2014-10-19T14:48:03.591Z</time>
      </trkpt>
      <trkpt lat="44.78047" lon="1.97412">
        <ele>429.419</ele>
        <time>2014-10-19T14:48:13.499Z</time>
      </trkpt>
      <trkpt lat="44.78038" lon="1.97411">
        <ele>431.827</ele>
        <time>2014-10-19T14:48:21.996Z</time>
      </trkpt>
      <trkpt lat="44.78029" lon="1.9741">
        <ele>433.812</ele>
        <time>2014-10-19T14:48:29.761Z</time>
      </trkpt>
      <trkpt lat="44.78019" lon="1.9741">
        <ele>434.878</ele>
        <time>2014-10-19T14:48:39.224Z</time>
      </trkpt>
      <trkpt lat="44.7801" lon="1.97406">
        <ele>435.09</ele>
        <time>2014-10-19T14:48:49.943Z</time>
      </trkpt>
      <trkpt lat="44.78001" lon="1.97405">
        <ele>434.78</ele>
        <time>2014-10-19T14:49:00.224Z</time>
      </trkpt>
      <trkpt lat="44.7799" lon="1.97402">
        <ele>434.044</ele>
        <time>2014-10-19T14:49:09.367Z</time>
      </trkpt>
      <trkpt lat="44.77983" lon="1.97394">
        <ele>433.101</ele>
        <time>2014-10-19T14:49:16.223Z</time>
      </trkpt>
      <trkpt lat="44.77977" lon="1.97383">
        <ele>432.742</ele>
        <time>2014-10-19T14:49:23.720Z</time>
      </trkpt>
      <trkpt lat="44.77973" lon="1.97372">
        <ele>433.432</ele>
        <time>2014-10-19T14:49:31.742Z</time>
      </trkpt>
      <trkpt lat="44.77969" lon="1.9736">
        <ele>435.617</ele>
        <time>2014-10-19T14:49:40.869Z</time>
      </trkpt>
      <trkpt lat="44.77963" lon="1.9735">
        <ele>439.214</ele>
        <time>2014-10-19T14:49:51.450Z</time>
      </trkpt>
      <trkpt lat="44.77956" lon="1.97361">
        <ele>443.025</ele>
        <time>2014-10-19T14:50:03.405Z</time>
      </trkpt>
      <trkpt lat="44.77948" lon="1.97367">
        <ele>446.213</ele>
        <time>2014-10-19T14:50:13.152Z</time>
      </trkpt>
      <trkpt lat="44.7794" lon="1.97371">
        <ele>448.608</ele>
        <time>2014-10-19T14:50:21.062Z</time>
      </trkpt>
      <trkpt lat="44.77931" lon="1.97374">
        <ele>449.679</ele>
        <time>2014-10-19T14:50:28.943Z</time>
      </trkpt>
      <trkpt lat="44.77922" lon="1.97378">
        <ele>449.599</ele>
        <time>2014-10-19T14:50:38.003Z</time>
      </trkpt>
      <trkpt lat="44.77922" lon="1.97378">
        <ele>449.142</ele>
        <time>2014-10-19T14:50:51.010Z</time>
      </trkpt>
      <trkpt lat="44.77911" lon="1.97381">
        <ele>448.882</ele>
        <time>2014-10-19T14:51:28.410Z</time>
      </trkpt>
      <trkpt lat="44.77911" lon="1.97381">
        <ele>449.812</ele>
        <time>2014-10-19T15:04:51.119Z</time>
      </trkpt>
      <trkpt lat="44.77911" lon="1.97381">
        <ele>452.325</ele>
        <time>2014-10-19T15:04:51.219Z</time>
      </trkpt>
      <trkpt lat="44.77897" lon="1.97385">
        <ele>454.469</ele>
        <time>2014-10-19T15:05:27.393Z</time>
      </trkpt>
      <trkpt lat="44.77897" lon="1.97386">
        <ele>454.612</ele>
        <time>2014-10-19T15:05:27.968Z</time>
      </trkpt>
      <trkpt lat="44.77893" lon="1.97398">
        <ele>453.702</ele>
        <time>2014-10-19T15:05:37.738Z</time>
      </trkpt>
      <trkpt lat="44.77888" lon="1.9741">
        <ele>452.667</ele>
        <time>2014-10-19T15:05:46.996Z</time>
      </trkpt>
      <trkpt lat="44.77882" lon="1.97421">
        <ele>451.572</ele>
        <time>2014-10-19T15:05:57.328Z</time>
      </trkpt>
      <trkpt lat="44.77881" lon="1.97436">
        <ele>451.078</ele>
        <time>2014-10-19T15:06:08.516Z</time>
      </trkpt>
      <trkpt lat="44.77879" lon="1.97449">
        <ele>452.037</ele>
        <time>2014-10-19T15:06:18.766Z</time>
      </trkpt>
      <trkpt lat="44.77877" lon="1.97461">
        <ele>453.903</ele>
        <time>2014-10-19T15:06:27.833Z</time>
      </trkpt>
      <trkpt lat="44.77873" lon="1.97473">
        <ele>455.539</ele>
        <time>2014-10-19T15:06:35.494Z</time>
      </trkpt>
      <trkpt lat="44.77868" lon="1.97486">
        <ele>456.473</ele>
        <time>2014-10-19T15:06:44.723Z</time>
      </trkpt>
      <trkpt lat="44.77865" lon="1.975">
        <ele>456.721</ele>
        <time>2014-10-19T15:06:53.951Z</time>
      </trkpt>
      <trkpt lat="44.77848" lon="1.9756">
        <ele>455.036</ele>
        <time>2014-10-19T15:07:38.231Z</time>
      </trkpt>
      <trkpt lat="44.77841" lon="1.9757">
        <ele>451.463</ele>
        <time>2014-10-19T15:07:46.633Z</time>
      </trkpt>
      <trkpt lat="44.77836" lon="1.9758">
        <ele>447.091</ele>
        <time>2014-10-19T15:07:55.878Z</time>
      </trkpt>
      <trkpt lat="44.7783" lon="1.97591">
        <ele>443.608</ele>
        <time>2014-10-19T15:08:06.333Z</time>
      </trkpt>
      <trkpt lat="44.77825" lon="1.97603">
        <ele>441.54</ele>
        <time>2014-10-19T15:08:15.801Z</time>
      </trkpt>
      <trkpt lat="44.77828" lon="1.97617">
        <ele>440.294</ele>
        <time>2014-10-19T15:08:25.503Z</time>
      </trkpt>
      <trkpt lat="44.77828" lon="1.9763">
        <ele>438.795</ele>
        <time>2014-10-19T15:08:34.351Z</time>
      </trkpt>
      <trkpt lat="44.77828" lon="1.97644">
        <ele>437.238</ele>
        <time>2014-10-19T15:08:43.166Z</time>
      </trkpt>
      <trkpt lat="44.77828" lon="1.97657">
        <ele>436.495</ele>
        <time>2014-10-19T15:08:50.105Z</time>
      </trkpt>
      <trkpt lat="44.77823" lon="1.97669">
        <ele>437.81</ele>
        <time>2014-10-19T15:08:56.421Z</time>
      </trkpt>
      <trkpt lat="44.77817" lon="1.97678">
        <ele>441.411</ele>
        <time>2014-10-19T15:09:02.720Z</time>
      </trkpt>
      <trkpt lat="44.77808" lon="1.97687">
        <ele>445.161</ele>
        <time>2014-10-19T15:09:10.136Z</time>
      </trkpt>
      <trkpt lat="44.77801" lon="1.97697">
        <ele>445.815</ele>
        <time>2014-10-19T15:09:18.421Z</time>
      </trkpt>
      <trkpt lat="44.77794" lon="1.97707">
        <ele>441.76</ele>
        <time>2014-10-19T15:09:29.075Z</time>
      </trkpt>
      <trkpt lat="44.77796" lon="1.9772">
        <ele>435.237</ele>
        <time>2014-10-19T15:09:40.504Z</time>
      </trkpt>
      <trkpt lat="44.77798" lon="1.97733">
        <ele>430.413</ele>
        <time>2014-10-19T15:09:50.585Z</time>
      </trkpt>
      <trkpt lat="44.77801" lon="1.97746">
        <ele>427.641</ele>
        <time>2014-10-19T15:09:59.511Z</time>
      </trkpt>
      <trkpt lat="44.77804" lon="1.97757">
        <ele>424.888</ele>
        <time>2014-10-19T15:10:07.654Z</time>
      </trkpt>
      <trkpt lat="44.77808" lon="1.9777">
        <ele>422.408</ele>
        <time>2014-10-19T15:10:16.273Z</time>
      </trkpt>
      <trkpt lat="44.77809" lon="1.97784">
        <ele>421.264</ele>
        <time>2014-10-19T15:10:25.674Z</time>
      </trkpt>
      <trkpt lat="44.77811" lon="1.97798">
        <ele>420.454</ele>
        <time>2014-10-19T15:10:35.485Z</time>
      </trkpt>
      <trkpt lat="44.77813" lon="1.97811">
        <ele>419.029</ele>
        <time>2014-10-19T15:10:44.451Z</time>
      </trkpt>
      <trkpt lat="44.77816" lon="1.97824">
        <ele>417.548</ele>
        <time>2014-10-19T15:10:52.803Z</time>
      </trkpt>
      <trkpt lat="44.7782" lon="1.97838">
        <ele>416.664</ele>
        <time>2014-10-19T15:11:01.756Z</time>
      </trkpt>
      <trkpt lat="44.77824" lon="1.97852">
        <ele>415.718</ele>
        <time>2014-10-19T15:11:10.362Z</time>
      </trkpt>
      <trkpt lat="44.77828" lon="1.97864">
        <ele>414.045</ele>
        <time>2014-10-19T15:11:18.595Z</time>
      </trkpt>
      <trkpt lat="44.77833" lon="1.97875">
        <ele>412.301</ele>
        <time>2014-10-19T15:11:27.147Z</time>
      </trkpt>
      <trkpt lat="44.77838" lon="1.97887">
        <ele>411.103</ele>
        <time>2014-10-19T15:11:35.637Z</time>
      </trkpt>
      <trkpt lat="44.77844" lon="1.97899">
        <ele>409.863</ele>
        <time>2014-10-19T15:11:44.760Z</time>
      </trkpt>
      <trkpt lat="44.77848" lon="1.97911">
        <ele>408.724</ele>
        <time>2014-10-19T15:11:53.699Z</time>
      </trkpt>
      <trkpt lat="44.77855" lon="1.97921">
        <ele>408.84</ele>
        <time>2014-10-19T15:12:02.233Z</time>
      </trkpt>
      <trkpt lat="44.77861" lon="1.97931">
        <ele>410.221</ele>
        <time>2014-10-19T15:12:10.063Z</time>
      </trkpt>
      <trkpt lat="44.77868" lon="1.97941">
        <ele>411.52</ele>
        <time>2014-10-19T15:12:19.120Z</time>
      </trkpt>
      <trkpt lat="44.77876" lon="1.97951">
        <ele>411.962</ele>
        <time>2014-10-19T15:12:29.057Z</time>
      </trkpt>
      <trkpt lat="44.77884" lon="1.97959">
        <ele>411.838</ele>
        <time>2014-10-19T15:12:38.113Z</time>
      </trkpt>
      <trkpt lat="44.77893" lon="1.97963">
        <ele>411.405</ele>
        <time>2014-10-19T15:12:46.443Z</time>
      </trkpt>
      <trkpt lat="44.77902" lon="1.97966">
        <ele>410.462</ele>
        <time>2014-10-19T15:12:54.478Z</time>
      </trkpt>
      <trkpt lat="44.77912" lon="1.97968">
        <ele>409.193</ele>
        <time>2014-10-19T15:13:03.448Z</time>
      </trkpt>
      <trkpt lat="44.77921" lon="1.9797">
        <ele>408.684</ele>
        <time>2014-10-19T15:13:11.857Z</time>
      </trkpt>
      <trkpt lat="44.7793" lon="1.97971">
        <ele>409.433</ele>
        <time>2014-10-19T15:13:20.492Z</time>
      </trkpt>
      <trkpt lat="44.7794" lon="1.97973">
        <ele>410.444</ele>
        <time>2014-10-19T15:13:28.842Z</time>
      </trkpt>
      <trkpt lat="44.77949" lon="1.97974">
        <ele>410.781</ele>
        <time>2014-10-19T15:13:36.149Z</time>
      </trkpt>
      <trkpt lat="44.77959" lon="1.97975">
        <ele>410.92</ele>
        <time>2014-10-19T15:13:44.002Z</time>
      </trkpt>
      <trkpt lat="44.77969" lon="1.97979">
        <ele>411.457</ele>
        <time>2014-10-19T15:13:52.886Z</time>
      </trkpt>
      <trkpt lat="44.77978" lon="1.97983">
        <ele>412.036</ele>
        <time>2014-10-19T15:14:01.005Z</time>
      </trkpt>
      <trkpt lat="44.77988" lon="1.97981">
        <ele>411.701</ele>
        <time>2014-10-19T15:14:09.743Z</time>
      </trkpt>
      <trkpt lat="44.77997" lon="1.97977">
        <ele>410.406</ele>
        <time>2014-10-19T15:14:18.082Z</time>
      </trkpt>
      <trkpt lat="44.78007" lon="1.97973">
        <ele>408.878</ele>
        <time>2014-10-19T15:14:26.730Z</time>
      </trkpt>
      <trkpt lat="44.78015" lon="1.97966">
        <ele>407.583</ele>
        <time>2014-10-19T15:14:35.118Z</time>
      </trkpt>
      <trkpt lat="44.78024" lon="1.9796">
        <ele>406.408</ele>
        <time>2014-10-19T15:14:43.442Z</time>
      </trkpt>
      <trkpt lat="44.78033" lon="1.97956">
        <ele>405.301</ele>
        <time>2014-10-19T15:14:51.763Z</time>
      </trkpt>
      <trkpt lat="44.78043" lon="1.97953">
        <ele>404.337</ele>
        <time>2014-10-19T15:15:00.651Z</time>
      </trkpt>
      <trkpt lat="44.78052" lon="1.97947">
        <ele>403.641</ele>
        <time>2014-10-19T15:15:09.197Z</time>
      </trkpt>
      <trkpt lat="44.7806" lon="1.9794">
        <ele>403.028</ele>
        <time>2014-10-19T15:15:17.359Z</time>
      </trkpt>
      <trkpt lat="44.78067" lon="1.97932">
        <ele>402.424</ele>
        <time>2014-10-19T15:15:25.158Z</time>
      </trkpt>
      <trkpt lat="44.78072" lon="1.97921">
        <ele>402.188</ele>
        <time>2014-10-19T15:15:32.802Z</time>
      </trkpt>
      <trkpt lat="44.78079" lon="1.97912">
        <ele>402.571</ele>
        <time>2014-10-19T15:15:41.219Z</time>
      </trkpt>
      <trkpt lat="44.78084" lon="1.97901">
        <ele>402.87</ele>
        <time>2014-10-19T15:15:50.477Z</time>
      </trkpt>
      <trkpt lat="44.78086" lon="1.97887">
        <ele>402.49</ele>
        <time>2014-10-19T15:16:00.424Z</time>
      </trkpt>
      <trkpt lat="44.78085" lon="1.97874">
        <ele>401.851</ele>
        <time>2014-10-19T15:16:09.740Z</time>
      </trkpt>
      <trkpt lat="44.78081" lon="1.97862">
        <ele>400.986</ele>
        <time>2014-10-19T15:16:18.105Z</time>
      </trkpt>
      <trkpt lat="44.78078" lon="1.9785">
        <ele>399.504</ele>
        <time>2014-10-19T15:16:26.416Z</time>
      </trkpt>
      <trkpt lat="44.7807" lon="1.97841">
        <ele>397.979</ele>
        <time>2014-10-19T15:16:34.829Z</time>
      </trkpt>
      <trkpt lat="44.78062" lon="1.97834">
        <ele>397.172</ele>
        <time>2014-10-19T15:16:43.640Z</time>
      </trkpt>
      <trkpt lat="44.78053" lon="1.9783">
        <ele>396.952</ele>
        <time>2014-10-19T15:16:52.528Z</time>
      </trkpt>
      <trkpt lat="44.78044" lon="1.97824">
        <ele>396.761</ele>
        <time>2014-10-19T15:17:01.180Z</time>
      </trkpt>
      <trkpt lat="44.78036" lon="1.97818">
        <ele>396.045</ele>
        <time>2014-10-19T15:17:09.578Z</time>
      </trkpt>
      <trkpt lat="44.78027" lon="1.97813">
        <ele>394.87</ele>
        <time>2014-10-19T15:17:19.707Z</time>
      </trkpt>
      <trkpt lat="44.78017" lon="1.97811">
        <ele>393.76</ele>
        <time>2014-10-19T15:17:31.424Z</time>
      </trkpt>
      <trkpt lat="44.78012" lon="1.978">
        <ele>392.743</ele>
        <time>2014-10-19T15:17:41.583Z</time>
      </trkpt>
      <trkpt lat="44.78019" lon="1.97792">
        <ele>391.024</ele>
        <time>2014-10-19T15:17:51.453Z</time>
      </trkpt>
      <trkpt lat="44.78028" lon="1.97784">
        <ele>388.138</ele>
        <time>2014-10-19T15:18:01.997Z</time>
      </trkpt>
      <trkpt lat="44.78037" lon="1.97778">
        <ele>384.294</ele>
        <time>2014-10-19T15:18:10.322Z</time>
      </trkpt>
      <trkpt lat="44.78046" lon="1.97774">
        <ele>380.078</ele>
        <time>2014-10-19T15:18:18.488Z</time>
      </trkpt>
      <trkpt lat="44.78056" lon="1.97769">
        <ele>376.344</ele>
        <time>2014-10-19T15:18:27.920Z</time>
      </trkpt>
      <trkpt lat="44.78065" lon="1.97767">
        <ele>373.271</ele>
        <time>2014-10-19T15:18:36.164Z</time>
      </trkpt>
      <trkpt lat="44.78074" lon="1.97766">
        <ele>370.268</ele>
        <time>2014-10-19T15:18:46.569Z</time>
      </trkpt>
      <trkpt lat="44.78083" lon="1.97765">
        <ele>367.668</ele>
        <time>2014-10-19T15:18:56.072Z</time>
      </trkpt>
      <trkpt lat="44.78094" lon="1.97769">
        <ele>366.785</ele>
        <time>2014-10-19T15:19:04.341Z</time>
      </trkpt>
      <trkpt lat="44.78103" lon="1.97772">
        <ele>367.853</ele>
        <time>2014-10-19T15:19:11.108Z</time>
      </trkpt>
      <trkpt lat="44.78112" lon="1.97775">
        <ele>369.013</ele>
        <time>2014-10-19T15:19:19.619Z</time>
      </trkpt>
      <trkpt lat="44.78122" lon="1.97777">
        <ele>368.584</ele>
        <time>2014-10-19T15:19:28.950Z</time>
      </trkpt>
      <trkpt lat="44.78131" lon="1.97781">
        <ele>367.126</ele>
        <time>2014-10-19T15:19:38.175Z</time>
      </trkpt>
      <trkpt lat="44.7814" lon="1.97784">
        <ele>365.602</ele>
        <time>2014-10-19T15:19:47.555Z</time>
      </trkpt>
      <trkpt lat="44.78149" lon="1.97788">
        <ele>364.24</ele>
        <time>2014-10-19T15:19:56.942Z</time>
      </trkpt>
      <trkpt lat="44.78157" lon="1.97794">
        <ele>362.83</ele>
        <time>2014-10-19T15:20:05.798Z</time>
      </trkpt>
      <trkpt lat="44.78164" lon="1.97801">
        <ele>361.077</ele>
        <time>2014-10-19T15:20:14.719Z</time>
      </trkpt>
      <trkpt lat="44.78172" lon="1.9781">
        <ele>358.523</ele>
        <time>2014-10-19T15:20:23.768Z</time>
      </trkpt>
      <trkpt lat="44.78179" lon="1.97819">
        <ele>355.124</ele>
        <time>2014-10-19T15:20:31.727Z</time>
      </trkpt>
      <trkpt lat="44.78185" lon="1.9783">
        <ele>351.939</ele>
        <time>2014-10-19T15:20:39.854Z</time>
      </trkpt>
      <trkpt lat="44.78191" lon="1.9784">
        <ele>350.206</ele>
        <time>2014-10-19T15:20:48.918Z</time>
      </trkpt>
      <trkpt lat="44.78197" lon="1.97851">
        <ele>350.07</ele>
        <time>2014-10-19T15:20:58.582Z</time>
      </trkpt>
      <trkpt lat="44.78204" lon="1.97863">
        <ele>351.008</ele>
        <time>2014-10-19T15:21:07.231Z</time>
      </trkpt>
      <trkpt lat="44.78208" lon="1.97874">
        <ele>352.442</ele>
        <time>2014-10-19T15:21:14.903Z</time>
      </trkpt>
      <trkpt lat="44.78214" lon="1.97885">
        <ele>353.58</ele>
        <time>2014-10-19T15:21:23.841Z</time>
      </trkpt>
      <trkpt lat="44.78218" lon="1.97897">
        <ele>354.16</ele>
        <time>2014-10-19T15:21:32.487Z</time>
      </trkpt>
      <trkpt lat="44.78221" lon="1.97911">
        <ele>354.601</ele>
        <time>2014-10-19T15:21:41.857Z</time>
      </trkpt>
      <trkpt lat="44.78224" lon="1.97924">
        <ele>354.98</ele>
        <time>2014-10-19T15:21:51.309Z</time>
      </trkpt>
      <trkpt lat="44.78227" lon="1.97936">
        <ele>354.333</ele>
        <time>2014-10-19T15:22:00.523Z</time>
      </trkpt>
      <trkpt lat="44.78229" lon="1.97948">
        <ele>352.383</ele>
        <time>2014-10-19T15:22:09.817Z</time>
      </trkpt>
      <trkpt lat="44.78232" lon="1.9796">
        <ele>349.747</ele>
        <time>2014-10-19T15:22:19.380Z</time>
      </trkpt>
      <trkpt lat="44.78233" lon="1.97974">
        <ele>347.108</ele>
        <time>2014-10-19T15:22:29.812Z</time>
      </trkpt>
      <trkpt lat="44.78238" lon="1.97984">
        <ele>344.945</ele>
        <time>2014-10-19T15:22:39.572Z</time>
      </trkpt>
      <trkpt lat="44.78241" lon="1.97997">
        <ele>343.58</ele>
        <time>2014-10-19T15:22:49.171Z</time>
      </trkpt>
      <trkpt lat="44.78243" lon="1.9801">
        <ele>342.532</ele>
        <time>2014-10-19T15:22:58.587Z</time>
      </trkpt>
      <trkpt lat="44.78245" lon="1.98022">
        <ele>341.368</ele>
        <time>2014-10-19T15:23:08.336Z</time>
      </trkpt>
      <trkpt lat="44.78248" lon="1.98034">
        <ele>340.226</ele>
        <time>2014-10-19T15:23:18.347Z</time>
      </trkpt>
      <trkpt lat="44.78255" lon="1.98043">
        <ele>339.238</ele>
        <time>2014-10-19T15:23:28.067Z</time>
      </trkpt>
      <trkpt lat="44.78263" lon="1.98052">
        <ele>338.286</ele>
        <time>2014-10-19T15:23:37.324Z</time>
      </trkpt>
      <trkpt lat="44.78268" lon="1.98063">
        <ele>337.403</ele>
        <time>2014-10-19T15:23:46.139Z</time>
      </trkpt>
      <trkpt lat="44.78271" lon="1.98076">
        <ele>336.732</ele>
        <time>2014-10-19T15:23:55.530Z</time>
      </trkpt>
      <trkpt lat="44.78275" lon="1.98089">
        <ele>336.41</ele>
        <time>2014-10-19T15:24:04.790Z</time>
      </trkpt>
      <trkpt lat="44.78277" lon="1.98102">
        <ele>336.45</ele>
        <time>2014-10-19T15:24:13.089Z</time>
      </trkpt>
      <trkpt lat="44.78281" lon="1.98114">
        <ele>336.62</ele>
        <time>2014-10-19T15:24:21.577Z</time>
      </trkpt>
      <trkpt lat="44.78284" lon="1.98127">
        <ele>336.746</ele>
        <time>2014-10-19T15:24:30.861Z</time>
      </trkpt>
      <trkpt lat="44.78287" lon="1.9814">
        <ele>336.81</ele>
        <time>2014-10-19T15:24:40.386Z</time>
      </trkpt>
      <trkpt lat="44.78288" lon="1.98152">
        <ele>336.47</ele>
        <time>2014-10-19T15:24:49.906Z</time>
      </trkpt>
      <trkpt lat="44.78291" lon="1.98165">
        <ele>335.525</ele>
        <time>2014-10-19T15:24:59.215Z</time>
      </trkpt>
      <trkpt lat="44.78293" lon="1.98178">
        <ele>334.494</ele>
        <time>2014-10-19T15:25:07.584Z</time>
      </trkpt>
      <trkpt lat="44.78295" lon="1.98191">
        <ele>333.885</ele>
        <time>2014-10-19T15:25:15.717Z</time>
      </trkpt>
      <trkpt lat="44.78298" lon="1.98203">
        <ele>333.504</ele>
        <time>2014-10-19T15:25:24.039Z</time>
      </trkpt>
      <trkpt lat="44.783" lon="1.98216">
        <ele>333.044</ele>
        <time>2014-10-19T15:25:33.432Z</time>
      </trkpt>
      <trkpt lat="44.78304" lon="1.98229">
        <ele>332.366</ele>
        <time>2014-10-19T15:25:43.670Z</time>
      </trkpt>
      <trkpt lat="44.78305" lon="1.98243">
        <ele>331.584</ele>
        <time>2014-10-19T15:25:53.044Z</time>
      </trkpt>
      <trkpt lat="44.78304" lon="1.98255">
        <ele>330.823</ele>
        <time>2014-10-19T15:26:01.697Z</time>
      </trkpt>
      <trkpt lat="44.78302" lon="1.98269">
        <ele>330.151</ele>
        <time>2014-10-19T15:26:10.042Z</time>
      </trkpt>
      <trkpt lat="44.78302" lon="1.98281">
        <ele>329.378</ele>
        <time>2014-10-19T15:26:18.116Z</time>
      </trkpt>
      <trkpt lat="44.78299" lon="1.98295">
        <ele>328.693</ele>
        <time>2014-10-19T15:26:27.492Z</time>
      </trkpt>
      <trkpt lat="44.78298" lon="1.98309">
        <ele>328.607</ele>
        <time>2014-10-19T15:26:36.588Z</time>
      </trkpt>
      <trkpt lat="44.78296" lon="1.98322">
        <ele>329.19</ele>
        <time>2014-10-19T15:26:45.802Z</time>
      </trkpt>
      <trkpt lat="44.78295" lon="1.98335">
        <ele>330.226</ele>
        <time>2014-10-19T15:26:54.772Z</time>
      </trkpt>
      <trkpt lat="44.78296" lon="1.98349">
        <ele>331.334</ele>
        <time>2014-10-19T15:27:05.014Z</time>
      </trkpt>
      <trkpt lat="44.78299" lon="1.98363">
        <ele>331.854</ele>
        <time>2014-10-19T15:27:15.477Z</time>
      </trkpt>
      <trkpt lat="44.78301" lon="1.98375">
        <ele>331.783</ele>
        <time>2014-10-19T15:27:25.117Z</time>
      </trkpt>
      <trkpt lat="44.78306" lon="1.98387">
        <ele>331.582</ele>
        <time>2014-10-19T15:27:35.102Z</time>
      </trkpt>
      <trkpt lat="44.78313" lon="1.98396">
        <ele>331.743</ele>
        <time>2014-10-19T15:27:45.923Z</time>
      </trkpt>
      <trkpt lat="44.78321" lon="1.98404">
        <ele>332.458</ele>
        <time>2014-10-19T15:27:55.801Z</time>
      </trkpt>
      <trkpt lat="44.78329" lon="1.98412">
        <ele>332.713</ele>
        <time>2014-10-19T15:28:04.973Z</time>
      </trkpt>
      <trkpt lat="44.78337" lon="1.98419">
        <ele>331.727</ele>
        <time>2014-10-19T15:28:14.330Z</time>
      </trkpt>
      <trkpt lat="44.78345" lon="1.98425">
        <ele>331.028</ele>
        <time>2014-10-19T15:28:23.619Z</time>
      </trkpt>
      <trkpt lat="44.78353" lon="1.98432">
        <ele>332.726</ele>
        <time>2014-10-19T15:28:32.303Z</time>
      </trkpt>
      <trkpt lat="44.78362" lon="1.98439">
        <ele>336.237</ele>
        <time>2014-10-19T15:28:41.698Z</time>
      </trkpt>
      <trkpt lat="44.78371" lon="1.98438">
        <ele>339.048</ele>
        <time>2014-10-19T15:28:51.837Z</time>
      </trkpt>
      <trkpt lat="44.78381" lon="1.98435">
        <ele>339.979</ele>
        <time>2014-10-19T15:29:02.138Z</time>
      </trkpt>
      <trkpt lat="44.78389" lon="1.9843">
        <ele>340.059</ele>
        <time>2014-10-19T15:29:12.787Z</time>
      </trkpt>
      <trkpt lat="44.78398" lon="1.98426">
        <ele>341.003</ele>
        <time>2014-10-19T15:29:21.646Z</time>
      </trkpt>
      <trkpt lat="44.78407" lon="1.98423">
        <ele>343.278</ele>
        <time>2014-10-19T15:29:29.721Z</time>
      </trkpt>
      <trkpt lat="44.78416" lon="1.98421">
        <ele>345.837</ele>
        <time>2014-10-19T15:29:37.984Z</time>
      </trkpt>
      <trkpt lat="44.78425" lon="1.9842">
        <ele>347.684</ele>
        <time>2014-10-19T15:29:46.762Z</time>
      </trkpt>
      <trkpt lat="44.78429" lon="1.98433">
        <ele>349.202</ele>
        <time>2014-10-19T15:29:57.788Z</time>
      </trkpt>
      <trkpt lat="44.78431" lon="1.98447">
        <ele>351.181</ele>
        <time>2014-10-19T15:30:06.660Z</time>
      </trkpt>
      <trkpt lat="44.78431" lon="1.98461">
        <ele>353.263</ele>
        <time>2014-10-19T15:30:14.168Z</time>
      </trkpt>
      <trkpt lat="44.78431" lon="1.98475">
        <ele>354.007</ele>
        <time>2014-10-19T15:30:23.001Z</time>
      </trkpt>
      <trkpt lat="44.78431" lon="1.98476">
        <ele>352.978</ele>
        <time>2014-10-19T15:30:24.000Z</time>
      </trkpt>
    </trkseg>
  </trk>
</gpx>